PWSweather.com
Personal Weather Stations
Station Observations
SHAHALMS1
Eftra, Falkenberg, HA

EftraFalkenberg, HA

Lat: 56.85, Lon: 12.65

Elevation: 140

Station Type:

http://hem.passagen.se/risarp101

High Low Average
Temperature 67.3°F19.6°C 44.2°F6.8°C 61.5°F16.4°C
Dew Point 47.2°F8.4°C 30.3°F-0.9°C 36.1°F2.3°C
Winds 9.8 mph 15.8 kmh Calm Calm 3.0 mph NNE4.8 kmh NNE
Wind Gusts 20.8 mph33.5 kmh -- 7.0 mph11.3 kmh
Humidity 90% 26% 41%
Pressure 30.27 in1025.1 mb 30.15 in1021.0 mb -
Precipitation 0.00 in0.0 mm - -
Hour Temp Dew Point Humidity Winds Wind Gusts Pressure Precip Precip Rate Daily Precip Total
12:00 AM 50.0°F10.0°C 47.2°F8.4°C 90% 1.1 mph ENE1.8 kmh ENE 6.1 mph9.8 kmh 30.21 in1023.0 mb 0.00 in0.0 mm 0.00 in0.0 mm 0.00 in0.0 mm
12:10 AM 49.5°F9.7°C 46.4°F8.0°C 89% 0.6 mph E1.0 kmh E 6.8 mph10.9 kmh 30.21 in1023.0 mb 0.00 in0.0 mm 0.00 in0.0 mm 0.00 in0.0 mm
12:20 AM 48.9°F9.4°C 45.8°F7.7°C 89% 2.9 mph E4.7 kmh E 6.8 mph10.9 kmh 30.18 in1022.0 mb 0.00 in0.0 mm 0.00 in0.0 mm 0.00 in0.0 mm
12:30 AM 48.6°F9.2°C 45.5°F7.5°C 89% 0.4 mph ENE0.6 kmh ENE 4.3 mph6.9 kmh 30.21 in1023.0 mb 0.00 in0.0 mm 0.00 in0.0 mm 0.00 in0.0 mm
12:40 AM 48.2°F9.0°C 44.8°F7.1°C 88% Calm Calm -- 30.21 in1023.0 mb 0.00 in0.0 mm 0.00 in0.0 mm 0.00 in0.0 mm
12:50 AM 47.7°F8.7°C 44.3°F6.8°C 88% Calm Calm -- 30.21 in1023.0 mb 0.00 in0.0 mm 0.00 in0.0 mm 0.00 in0.0 mm
01:00 AM 47.3°F8.5°C 43.9°F6.6°C 88% 0.1 mph NNE0.2 kmh NNE 2.5 mph4.0 kmh 30.21 in1023.0 mb 0.00 in0.0 mm 0.00 in0.0 mm 0.00 in0.0 mm
01:10 AM 47.3°F8.5°C 43.9°F6.6°C 88% 0.5 mph N0.8 kmh N 3.2 mph5.1 kmh 30.21 in1023.0 mb 0.00 in0.0 mm 0.00 in0.0 mm 0.00 in0.0 mm
01:20 AM 47.1°F8.4°C 43.7°F6.5°C 88% Calm Calm -- 30.21 in1023.0 mb 0.00 in0.0 mm 0.00 in0.0 mm 0.00 in0.0 mm
01:30 AM 46.9°F8.3°C 43.3°F6.3°C 87% Calm Calm -- 30.24 in1024.0 mb 0.00 in0.0 mm 0.00 in0.0 mm 0.00 in0.0 mm
01:40 AM 46.9°F8.3°C 43.3°F6.3°C 87% 0.8 mph NE1.3 kmh NE 5.0 mph8.0 kmh 30.24 in1024.0 mb 0.00 in0.0 mm 0.00 in0.0 mm 0.00 in0.0 mm
01:50 AM 47.1°F8.4°C 43.4°F6.3°C 87% Calm Calm 1.4 mph2.3 kmh 30.21 in1023.0 mb 0.00 in0.0 mm 0.00 in0.0 mm 0.00 in0.0 mm
02:00 AM 47.1°F8.4°C 43.4°F6.3°C 87% 0.4 mph ENE0.6 kmh ENE 4.3 mph6.9 kmh 30.24 in1024.0 mb 0.00 in0.0 mm 0.00 in0.0 mm 0.00 in0.0 mm
02:10 AM 46.9°F8.3°C 43.0°F6.1°C 86% 0.1 mph NE0.2 kmh NE 1.4 mph2.3 kmh 30.24 in1024.0 mb 0.00 in0.0 mm 0.00 in0.0 mm 0.00 in0.0 mm
02:20 AM 46.9°F8.3°C 43.0°F6.1°C 86% 1.2 mph E1.9 kmh E 8.9 mph14.3 kmh 30.24 in1024.0 mb 0.00 in0.0 mm 0.00 in0.0 mm 0.00 in0.0 mm
02:30 AM 46.9°F8.3°C 42.7°F5.9°C 85% 0.3 mph NNE0.5 kmh NNE 4.7 mph7.6 kmh 30.24 in1024.0 mb 0.00 in0.0 mm 0.00 in0.0 mm 0.00 in0.0 mm
02:40 AM 46.8°F8.2°C 42.2°F5.7°C 84% Calm Calm 2.5 mph4.0 kmh 30.24 in1024.0 mb 0.00 in0.0 mm 0.00 in0.0 mm 0.00 in0.0 mm
02:50 AM 46.8°F8.2°C 42.2°F5.7°C 84% 0.6 mph ENE1.0 kmh ENE 6.4 mph10.3 kmh 30.24 in1024.0 mb 0.00 in0.0 mm 0.00 in0.0 mm 0.00 in0.0 mm
03:00 AM 46.6°F8.1°C 42.0°F5.6°C 84% 0.8 mph NE1.3 kmh NE 5.7 mph9.2 kmh 30.24 in1024.0 mb 0.00 in0.0 mm 0.00 in0.0 mm 0.00 in0.0 mm
03:10 AM 46.2°F7.9°C 41.3°F5.2°C 83% Calm Calm -- 30.24 in1024.0 mb 0.00 in0.0 mm 0.00 in0.0 mm 0.00 in0.0 mm
03:20 AM 45.9°F7.7°C 41.0°F5.0°C 83% 0.6 mph NE1.0 kmh NE 4.7 mph7.6 kmh 30.24 in1024.0 mb 0.00 in0.0 mm 0.00 in0.0 mm 0.00 in0.0 mm
03:30 AM 45.5°F7.5°C 40.3°F4.6°C 82% 1.7 mph ENE2.7 kmh ENE 5.7 mph9.2 kmh 30.24 in1024.0 mb 0.00 in0.0 mm 0.00 in0.0 mm 0.00 in0.0 mm
03:40 AM 45.1°F7.3°C 40.0°F4.4°C 82% 4.2 mph E6.8 kmh E 8.6 mph13.8 kmh 30.24 in1024.0 mb 0.00 in0.0 mm 0.00 in0.0 mm 0.00 in0.0 mm
03:50 AM 44.8°F7.1°C 39.6°F4.2°C 82% 2.3 mph ENE3.7 kmh ENE 8.6 mph13.8 kmh 30.24 in1024.0 mb 0.00 in0.0 mm 0.00 in0.0 mm 0.00 in0.0 mm
04:00 AM 44.8°F7.1°C 39.6°F4.2°C 82% 1.6 mph ENE2.6 kmh ENE 6.4 mph10.3 kmh 30.24 in1024.0 mb 0.00 in0.0 mm 0.00 in0.0 mm 0.00 in0.0 mm
04:10 AM 44.6°F7.0°C 39.4°F4.1°C 82% 1.9 mph NE3.1 kmh NE 9.3 mph15.0 kmh 30.24 in1024.0 mb 0.00 in0.0 mm 0.00 in0.0 mm 0.00 in0.0 mm
04:20 AM 44.6°F7.0°C 39.1°F3.9°C 81% 1.6 mph ENE2.6 kmh ENE 7.9 mph12.7 kmh 30.24 in1024.0 mb 0.00 in0.0 mm 0.00 in0.0 mm 0.00 in0.0 mm
04:30 AM 44.6°F7.0°C 39.1°F3.9°C 81% 2.8 mph NE4.5 kmh NE 7.9 mph12.7 kmh 30.24 in1024.0 mb 0.00 in0.0 mm 0.00 in0.0 mm 0.00 in0.0 mm
04:40 AM 44.6°F7.0°C 38.8°F3.8°C 80% 3.1 mph ENE5.0 kmh ENE 10.0 mph16.1 kmh 30.24 in1024.0 mb 0.00 in0.0 mm 0.00 in0.0 mm 0.00 in0.0 mm
04:50 AM 44.6°F7.0°C 38.5°F3.6°C 79% 4.2 mph ENE6.8 kmh ENE 10.0 mph16.1 kmh 30.24 in1024.0 mb 0.00 in0.0 mm 0.00 in0.0 mm 0.00 in0.0 mm
05:00 AM 44.6°F7.0°C 38.2°F3.4°C 78% 3.2 mph ENE5.1 kmh ENE 9.3 mph15.0 kmh 30.24 in1024.0 mb 0.00 in0.0 mm 0.00 in0.0 mm 0.00 in0.0 mm
05:10 AM 44.4°F6.9°C 38.0°F3.3°C 78% 4.3 mph E6.9 kmh E 11.8 mph19.0 kmh 30.24 in1024.0 mb 0.00 in0.0 mm 0.00 in0.0 mm 0.00 in0.0 mm
05:20 AM 44.2°F6.8°C 37.5°F3.1°C 77% 5.1 mph E8.2 kmh E 11.1 mph17.9 kmh 30.24 in1024.0 mb 0.00 in0.0 mm 0.00 in0.0 mm 0.00 in0.0 mm
05:30 AM 44.2°F6.8°C 37.5°F3.1°C 77% 5.2 mph E8.4 kmh E 11.5 mph18.5 kmh 30.24 in1024.0 mb 0.00 in0.0 mm 0.00 in0.0 mm 0.00 in0.0 mm
05:40 AM 44.2°F6.8°C 37.5°F3.1°C 77% 5.0 mph E8.0 kmh E 10.4 mph16.7 kmh 30.24 in1024.0 mb 0.00 in0.0 mm 0.00 in0.0 mm 0.00 in0.0 mm
05:50 AM 44.2°F6.8°C 37.2°F2.9°C 76% 3.9 mph E6.3 kmh E 11.8 mph19.0 kmh 30.24 in1024.0 mb 0.00 in0.0 mm 0.00 in0.0 mm 0.00 in0.0 mm
06:00 AM 44.4°F6.9°C 37.3°F2.9°C 76% 3.3 mph E5.3 kmh E 8.9 mph14.3 kmh 30.24 in1024.0 mb 0.00 in0.0 mm 0.00 in0.0 mm 0.00 in0.0 mm
06:10 AM 44.6°F7.0°C 37.5°F3.1°C 76% 4.7 mph E7.6 kmh E 11.8 mph19.0 kmh 30.24 in1024.0 mb 0.00 in0.0 mm 0.00 in0.0 mm 0.00 in0.0 mm
06:20 AM 45.0°F7.2°C 37.8°F3.2°C 76% 4.3 mph E6.9 kmh E 8.9 mph14.3 kmh 30.24 in1024.0 mb 0.00 in0.0 mm 0.00 in0.0 mm 0.00 in0.0 mm
06:30 AM 45.3°F7.4°C 37.9°F3.3°C 75% 3.1 mph ENE5.0 kmh ENE 9.3 mph15.0 kmh 30.24 in1024.0 mb 0.00 in0.0 mm 0.00 in0.0 mm 0.00 in0.0 mm
06:40 AM 46.0°F7.8°C 38.9°F3.8°C 76% 4.9 mph E7.9 kmh E 12.2 mph19.6 kmh 30.24 in1024.0 mb 0.00 in0.0 mm 0.00 in0.0 mm 0.00 in0.0 mm
06:50 AM 46.4°F8.0°C 38.9°F3.8°C 75% 6.6 mph E10.6 kmh E 14.0 mph22.5 kmh 30.27 in1025.1 mb 0.00 in0.0 mm 0.00 in0.0 mm 0.00 in0.0 mm
07:00 AM 47.1°F8.4°C 39.6°F4.2°C 75% 4.1 mph E6.6 kmh E 12.5 mph20.1 kmh 30.27 in1025.1 mb 0.00 in0.0 mm 0.00 in0.0 mm 0.00 in0.0 mm
07:10 AM 47.8°F8.8°C 40.0°F4.4°C 74% 6.8 mph E10.9 kmh E 13.6 mph21.9 kmh 30.27 in1025.1 mb 0.00 in0.0 mm 0.00 in0.0 mm 0.00 in0.0 mm
07:20 AM 48.6°F9.2°C 40.3°F4.6°C 73% 6.8 mph E10.9 kmh E 14.0 mph22.5 kmh 30.24 in1024.0 mb 0.00 in0.0 mm 0.00 in0.0 mm 0.00 in0.0 mm
07:30 AM 49.3°F9.6°C 40.6°F4.8°C 72% 3.5 mph E5.6 kmh E 11.8 mph19.0 kmh 30.24 in1024.0 mb 0.00 in0.0 mm 0.00 in0.0 mm 0.00 in0.0 mm
07:40 AM 49.8°F9.9°C 38.5°F3.6°C 65% 2.3 mph N3.7 kmh N 10.0 mph16.1 kmh 30.24 in1024.0 mb 0.00 in0.0 mm 0.00 in0.0 mm 0.00 in0.0 mm
07:50 AM 50.4°F10.2°C 38.2°F3.4°C 63% 2.5 mph N4.0 kmh N 6.1 mph9.8 kmh 30.21 in1023.0 mb 0.00 in0.0 mm 0.00 in0.0 mm 0.00 in0.0 mm
08:00 AM 51.3°F10.7°C 39.5°F4.2°C 64% 0.7 mph N1.1 kmh N 6.1 mph9.8 kmh 30.24 in1024.0 mb 0.00 in0.0 mm 0.00 in0.0 mm 0.00 in0.0 mm
08:10 AM 51.8°F11.0°C 38.8°F3.8°C 61% 1.5 mph NNE2.4 kmh NNE 7.5 mph12.1 kmh 30.24 in1024.0 mb 0.00 in0.0 mm 0.00 in0.0 mm 0.00 in0.0 mm
08:20 AM 52.3°F11.3°C 39.3°F4.1°C 61% 2.6 mph NE4.2 kmh NE 9.7 mph15.6 kmh 30.24 in1024.0 mb 0.00 in0.0 mm 0.00 in0.0 mm 0.00 in0.0 mm
08:30 AM 53.1°F11.7°C 38.7°F3.7°C 58% 2.5 mph NNE4.0 kmh NNE 7.9 mph12.7 kmh 30.24 in1024.0 mb 0.00 in0.0 mm 0.00 in0.0 mm 0.00 in0.0 mm
08:40 AM 53.6°F12.0°C 37.8°F3.2°C 55% 3.8 mph NE6.1 kmh NE 9.7 mph15.6 kmh 30.24 in1024.0 mb 0.00 in0.0 mm 0.00 in0.0 mm 0.00 in0.0 mm
08:50 AM 54.3°F12.4°C 38.5°F3.6°C 55% 5.1 mph NE8.2 kmh NE 14.3 mph23.0 kmh 30.24 in1024.0 mb 0.00 in0.0 mm 0.00 in0.0 mm 0.00 in0.0 mm
09:00 AM 54.9°F12.7°C 38.5°F3.6°C 54% 4.4 mph ENE7.1 kmh ENE 12.5 mph20.1 kmh 30.24 in1024.0 mb 0.00 in0.0 mm 0.00 in0.0 mm 0.00 in0.0 mm
09:10 AM 55.4°F13.0°C 38.5°F3.6°C 53% 2.5 mph NE4.0 kmh NE 7.5 mph12.1 kmh 30.24 in1024.0 mb 0.00 in0.0 mm 0.00 in0.0 mm 0.00 in0.0 mm
09:20 AM 56.1°F13.4°C 37.7°F3.2°C 50% 4.9 mph NNE7.9 kmh NNE 15.7 mph25.3 kmh 30.21 in1023.0 mb 0.00 in0.0 mm 0.00 in0.0 mm 0.00 in0.0 mm
09:30 AM 56.5°F13.6°C 36.5°F2.5°C 47% 5.2 mph NE8.4 kmh NE 11.5 mph18.5 kmh 30.24 in1024.0 mb 0.00 in0.0 mm 0.00 in0.0 mm 0.00 in0.0 mm
09:40 AM 56.8°F13.8°C 34.0°F1.1°C 42% 6.5 mph NNE10.5 kmh NNE 14.0 mph22.5 kmh 30.24 in1024.0 mb 0.00 in0.0 mm 0.00 in0.0 mm 0.00 in0.0 mm
09:50 AM 57.0°F13.9°C 33.5°F0.8°C 41% 6.8 mph NNE10.9 kmh NNE 11.1 mph17.9 kmh 30.24 in1024.0 mb 0.00 in0.0 mm 0.00 in0.0 mm 0.00 in0.0 mm
10:00 AM 57.6°F14.2°C 36.4°F2.4°C 45% 6.7 mph NE10.8 kmh NE 14.0 mph22.5 kmh 30.24 in1024.0 mb 0.00 in0.0 mm 0.00 in0.0 mm 0.00 in0.0 mm
10:10 AM 57.9°F14.4°C 35.5°F1.9°C 43% 5.9 mph NE9.5 kmh NE 11.8 mph19.0 kmh 30.24 in1024.0 mb 0.00 in0.0 mm 0.00 in0.0 mm 0.00 in0.0 mm
10:20 AM 58.3°F14.6°C 34.0°F1.1°C 40% 6.5 mph NNE10.5 kmh NNE 14.0 mph22.5 kmh 30.24 in1024.0 mb 0.00 in0.0 mm 0.00 in0.0 mm 0.00 in0.0 mm
10:30 AM 58.5°F14.7°C 32.9°F0.5°C 38% 7.3 mph N11.7 kmh N 14.0 mph22.5 kmh 30.24 in1024.0 mb 0.00 in0.0 mm 0.00 in0.0 mm 0.00 in0.0 mm
10:40 AM 58.8°F14.9°C 33.9°F1.1°C 39% 6.5 mph NE10.5 kmh NE 11.5 mph18.5 kmh 30.24 in1024.0 mb 0.00 in0.0 mm 0.00 in0.0 mm 0.00 in0.0 mm
10:50 AM 59.4°F15.2°C 35.0°F1.7°C 40% 6.5 mph ENE10.5 kmh ENE 15.4 mph24.8 kmh 30.24 in1024.0 mb 0.00 in0.0 mm 0.00 in0.0 mm 0.00 in0.0 mm
11:00 AM 59.9°F15.5°C 36.7°F2.6°C 42% 8.1 mph ENE13.0 kmh ENE 19.7 mph31.7 kmh 30.24 in1024.0 mb 0.00 in0.0 mm 0.00 in0.0 mm 0.00 in0.0 mm
11:10 AM 60.4°F15.8°C 36.6°F2.6°C 41% 5.7 mph NE9.2 kmh NE 13.6 mph21.9 kmh 30.24 in1024.0 mb 0.00 in0.0 mm 0.00 in0.0 mm 0.00 in0.0 mm
11:20 AM 60.8°F16.0°C 35.7°F2.1°C 39% 5.1 mph NE8.2 kmh NE 10.4 mph16.7 kmh 30.21 in1023.0 mb 0.00 in0.0 mm 0.00 in0.0 mm 0.00 in0.0 mm
11:30 AM 61.3°F16.3°C 36.8°F2.7°C 40% 5.6 mph NE9.0 kmh NE 11.8 mph19.0 kmh 30.21 in1023.0 mb 0.00 in0.0 mm 0.00 in0.0 mm 0.00 in0.0 mm
11:40 AM 61.7°F16.5°C 35.8°F2.1°C 38% 6.6 mph N10.6 kmh N 14.7 mph23.7 kmh 30.21 in1023.0 mb 0.00 in0.0 mm 0.00 in0.0 mm 0.00 in0.0 mm
11:50 AM 61.9°F16.6°C 34.6°F1.4°C 36% 6.1 mph NNE9.8 kmh NNE 17.5 mph28.2 kmh 30.24 in1024.0 mb 0.00 in0.0 mm 0.00 in0.0 mm 0.00 in0.0 mm
12:00 PM 62.4°F16.9°C 34.4°F1.3°C 35% 8.1 mph NNE13.0 kmh NNE 19.7 mph31.7 kmh 30.24 in1024.0 mb 0.00 in0.0 mm 0.00 in0.0 mm 0.00 in0.0 mm
12:10 PM 62.4°F16.9°C 34.4°F1.3°C 35% 7.3 mph N11.7 kmh N 17.2 mph27.7 kmh 30.24 in1024.0 mb 0.00 in0.0 mm 0.00 in0.0 mm 0.00 in0.0 mm
12:20 PM 62.8°F17.1°C 33.2°F0.7°C 33% 6.2 mph NNE10.0 kmh NNE 17.5 mph28.2 kmh 30.24 in1024.0 mb 0.00 in0.0 mm 0.00 in0.0 mm 0.00 in0.0 mm
12:30 PM 62.8°F17.1°C 32.5°F0.3°C 32% 7.2 mph N11.6 kmh N 14.0 mph22.5 kmh 30.24 in1024.0 mb 0.00 in0.0 mm 0.00 in0.0 mm 0.00 in0.0 mm
12:40 PM 63.1°F17.3°C 33.5°F0.8°C 33% 6.0 mph N9.7 kmh N 16.5 mph26.6 kmh 30.24 in1024.0 mb 0.00 in0.0 mm 0.00 in0.0 mm 0.00 in0.0 mm
12:50 PM 63.5°F17.5°C 33.1°F0.6°C 32% 9.8 mph N15.8 kmh N 20.8 mph33.5 kmh 30.24 in1024.0 mb 0.00 in0.0 mm 0.00 in0.0 mm 0.00 in0.0 mm
01:00 PM 63.7°F17.6°C 33.2°F0.7°C 32% 5.6 mph N9.0 kmh N 10.4 mph16.7 kmh 30.24 in1024.0 mb 0.00 in0.0 mm 0.00 in0.0 mm 0.00 in0.0 mm
01:10 PM 64.0°F17.8°C 33.6°F0.9°C 32% 6.0 mph N9.7 kmh N 14.0 mph22.5 kmh 30.24 in1024.0 mb 0.00 in0.0 mm 0.00 in0.0 mm 0.00 in0.0 mm
01:20 PM 64.2°F17.9°C 33.7°F0.9°C 32% 5.0 mph NNE8.0 kmh NNE 15.4 mph24.8 kmh 30.24 in1024.0 mb 0.00 in0.0 mm 0.00 in0.0 mm 0.00 in0.0 mm
01:30 PM 64.6°F18.1°C 33.2°F0.7°C 31% 6.4 mph N10.3 kmh N 14.7 mph23.7 kmh 30.21 in1023.0 mb 0.00 in0.0 mm 0.00 in0.0 mm 0.00 in0.0 mm
01:40 PM 64.8°F18.2°C 32.6°F0.3°C 30% 6.6 mph N10.6 kmh N 20.4 mph32.8 kmh 30.21 in1023.0 mb 0.00 in0.0 mm 0.00 in0.0 mm 0.00 in0.0 mm
01:50 PM 64.9°F18.3°C 32.7°F0.4°C 30% 7.9 mph N12.7 kmh N 19.3 mph31.1 kmh 30.21 in1023.0 mb 0.00 in0.0 mm 0.00 in0.0 mm 0.00 in0.0 mm
02:00 PM 65.1°F18.4°C 32.0°F0.0°C 29% 6.2 mph N10.0 kmh N 11.8 mph19.0 kmh 30.21 in1023.0 mb 0.00 in0.0 mm 0.00 in0.0 mm 0.00 in0.0 mm
02:10 PM 65.1°F18.4°C 32.0°F0.0°C 29% 6.1 mph N9.8 kmh N 12.2 mph19.6 kmh 30.21 in1023.0 mb 0.00 in0.0 mm 0.00 in0.0 mm 0.00 in0.0 mm
02:20 PM 65.3°F18.5°C 32.2°F0.1°C 29% 6.8 mph N10.9 kmh N 14.0 mph22.5 kmh 30.21 in1023.0 mb 0.00 in0.0 mm 0.00 in0.0 mm 0.00 in0.0 mm
02:30 PM 65.5°F18.6°C 33.2°F0.7°C 30% 6.8 mph N10.9 kmh N 14.7 mph23.7 kmh 30.18 in1022.0 mb 0.00 in0.0 mm 0.00 in0.0 mm 0.00 in0.0 mm
02:40 PM 65.7°F18.7°C 32.5°F0.3°C 29% 7.0 mph N11.3 kmh N 16.5 mph26.6 kmh 30.18 in1022.0 mb 0.00 in0.0 mm 0.00 in0.0 mm 0.00 in0.0 mm
02:50 PM 66.0°F18.9°C 32.8°F0.4°C 29% 7.4 mph N11.9 kmh N 15.7 mph25.3 kmh 30.18 in1022.0 mb 0.00 in0.0 mm 0.00 in0.0 mm 0.00 in0.0 mm
03:00 PM 65.8°F18.8°C 30.9°F-0.6°C 27% 7.0 mph N11.3 kmh N 15.7 mph25.3 kmh 30.18 in1022.0 mb 0.00 in0.0 mm 0.00 in0.0 mm 0.00 in0.0 mm
03:10 PM 66.2°F19.0°C 31.2°F-0.4°C 27% 6.4 mph N10.3 kmh N 15.4 mph24.8 kmh 30.18 in1022.0 mb 0.00 in0.0 mm 0.00 in0.0 mm 0.00 in0.0 mm
03:26 PM 66.2°F19.0°C 31.2°F-0.4°C 27% 4.4 mph N7.1 kmh N 5.4 mph8.7 kmh 30.18 in1022.0 mb 0.00 in0.0 mm 0.00 in0.0 mm 0.00 in0.0 mm
03:27 PM 66.2°F19.0°C 31.2°F-0.4°C 27% 7.0 mph N11.3 kmh N 11.8 mph19.0 kmh 30.18 in1022.0 mb 0.00 in0.0 mm 0.00 in0.0 mm 0.00 in0.0 mm
03:28 PM 66.2°F19.0°C 31.2°F-0.4°C 27% 6.5 mph N10.5 kmh N 11.8 mph19.0 kmh 30.18 in1022.0 mb 0.00 in0.0 mm 0.00 in0.0 mm 0.00 in0.0 mm
03:29 PM 66.2°F19.0°C 31.2°F-0.4°C 27% 6.3 mph N10.1 kmh N 11.8 mph19.0 kmh 30.18 in1022.0 mb 0.00 in0.0 mm 0.00 in0.0 mm 0.00 in0.0 mm
03:30 PM 66.2°F19.0°C 31.2°F-0.4°C 27% 6.5 mph N10.5 kmh N 11.8 mph19.0 kmh 30.18 in1022.0 mb 0.00 in0.0 mm 0.00 in0.0 mm 0.00 in0.0 mm
03:31 PM 66.2°F19.0°C 30.3°F-0.9°C 26% 7.2 mph N11.6 kmh N 12.9 mph20.8 kmh 30.18 in1022.0 mb 0.00 in0.0 mm 0.00 in0.0 mm 0.00 in0.0 mm
03:32 PM 66.4°F19.1°C 30.4°F-0.9°C 26% 7.3 mph N11.7 kmh N 12.9 mph20.8 kmh 30.18 in1022.0 mb 0.00 in0.0 mm 0.00 in0.0 mm 0.00 in0.0 mm
03:33 PM 66.4°F19.1°C 31.4°F-0.3°C 27% 7.7 mph N12.4 kmh N 12.9 mph20.8 kmh 30.18 in1022.0 mb 0.00 in0.0 mm 0.00 in0.0 mm 0.00 in0.0 mm
03:34 PM 66.4°F19.1°C 31.4°F-0.3°C 27% 7.7 mph N12.4 kmh N 12.9 mph20.8 kmh 30.18 in1022.0 mb 0.00 in0.0 mm 0.00 in0.0 mm 0.00 in0.0 mm
03:35 PM 66.4°F19.1°C 30.4°F-0.9°C 26% 7.5 mph N12.1 kmh N 12.9 mph20.8 kmh 30.18 in1022.0 mb 0.00 in0.0 mm 0.00 in0.0 mm 0.00 in0.0 mm
03:36 PM 66.4°F19.1°C 30.4°F-0.9°C 26% 7.1 mph N11.4 kmh N 12.9 mph20.8 kmh 30.18 in1022.0 mb 0.00 in0.0 mm 0.00 in0.0 mm 0.00 in0.0 mm
03:37 PM 66.4°F19.1°C 30.4°F-0.9°C 26% 6.8 mph N10.9 kmh N 12.9 mph20.8 kmh 30.18 in1022.0 mb 0.00 in0.0 mm 0.00 in0.0 mm 0.00 in0.0 mm
03:38 PM 66.4°F19.1°C 31.4°F-0.3°C 27% 6.8 mph N10.9 kmh N 12.9 mph20.8 kmh 30.18 in1022.0 mb 0.00 in0.0 mm 0.00 in0.0 mm 0.00 in0.0 mm
03:39 PM 66.4°F19.1°C 32.3°F0.2°C 28% 7.0 mph N11.3 kmh N 12.9 mph20.8 kmh 30.18 in1022.0 mb 0.00 in0.0 mm 0.00 in0.0 mm 0.00 in0.0 mm
03:40 PM 66.6°F19.2°C 32.4°F0.2°C 28% 6.8 mph N10.9 kmh N 12.9 mph20.8 kmh 30.18 in1022.0 mb 0.00 in0.0 mm 0.00 in0.0 mm 0.00 in0.0 mm
03:41 PM 66.6°F19.2°C 31.5°F-0.3°C 27% 6.4 mph N10.3 kmh N 12.9 mph20.8 kmh 30.18 in1022.0 mb 0.00 in0.0 mm 0.00 in0.0 mm 0.00 in0.0 mm
03:42 PM 66.6°F19.2°C 32.4°F0.2°C 28% 6.5 mph N10.5 kmh N 12.9 mph20.8 kmh 30.18 in1022.0 mb 0.00 in0.0 mm 0.00 in0.0 mm 0.00 in0.0 mm
03:43 PM 66.6°F19.2°C 32.4°F0.2°C 28% 6.2 mph N10.0 kmh N 12.2 mph19.6 kmh 30.18 in1022.0 mb 0.00 in0.0 mm 0.00 in0.0 mm 0.00 in0.0 mm
03:44 PM 66.6°F19.2°C 31.5°F-0.3°C 27% 6.0 mph N9.7 kmh N 12.2 mph19.6 kmh 30.18 in1022.0 mb 0.00 in0.0 mm 0.00 in0.0 mm 0.00 in0.0 mm
03:45 PM 66.6°F19.2°C 31.5°F-0.3°C 27% 6.0 mph N9.7 kmh N 12.2 mph19.6 kmh 30.18 in1022.0 mb 0.00 in0.0 mm 0.00 in0.0 mm 0.00 in0.0 mm
03:46 PM 66.6°F19.2°C 31.5°F-0.3°C 27% 6.8 mph N10.9 kmh N 12.2 mph19.6 kmh 30.18 in1022.0 mb 0.00 in0.0 mm 0.00 in0.0 mm 0.00 in0.0 mm
03:47 PM 66.6°F19.2°C 31.5°F-0.3°C 27% 7.0 mph N11.3 kmh N 12.2 mph19.6 kmh 30.18 in1022.0 mb 0.00 in0.0 mm 0.00 in0.0 mm 0.00 in0.0 mm
03:48 PM 66.6°F19.2°C 30.6°F-0.8°C 26% 6.8 mph N10.9 kmh N 12.2 mph19.6 kmh 30.18 in1022.0 mb 0.00 in0.0 mm 0.00 in0.0 mm 0.00 in0.0 mm
03:49 PM 66.6°F19.2°C 30.6°F-0.8°C 26% 6.6 mph N10.6 kmh N 12.2 mph19.6 kmh 30.18 in1022.0 mb 0.00 in0.0 mm 0.00 in0.0 mm 0.00 in0.0 mm
03:50 PM 66.6°F19.2°C 31.5°F-0.3°C 27% 6.5 mph N10.5 kmh N 12.2 mph19.6 kmh 30.18 in1022.0 mb 0.00 in0.0 mm 0.00 in0.0 mm 0.00 in0.0 mm
03:51 PM 66.6°F19.2°C 31.5°F-0.3°C 27% 6.6 mph N10.6 kmh N 12.2 mph19.6 kmh 30.18 in1022.0 mb 0.00 in0.0 mm 0.00 in0.0 mm 0.00 in0.0 mm
03:52 PM 66.6°F19.2°C 31.5°F-0.3°C 27% 6.0 mph N9.7 kmh N 10.0 mph16.1 kmh 30.15 in1021.0 mb 0.00 in0.0 mm 0.00 in0.0 mm 0.00 in0.0 mm
03:53 PM 66.6°F19.2°C 31.5°F-0.3°C 27% 6.6 mph N10.6 kmh N 15.7 mph25.3 kmh 30.15 in1021.0 mb 0.00 in0.0 mm 0.00 in0.0 mm 0.00 in0.0 mm
03:54 PM 66.6°F19.2°C 30.6°F-0.8°C 26% 6.9 mph N11.1 kmh N 15.7 mph25.3 kmh 30.15 in1021.0 mb 0.00 in0.0 mm 0.00 in0.0 mm 0.00 in0.0 mm
03:55 PM 66.6°F19.2°C 30.6°F-0.8°C 26% 6.9 mph N11.1 kmh N 15.7 mph25.3 kmh 30.15 in1021.0 mb 0.00 in0.0 mm 0.00 in0.0 mm 0.00 in0.0 mm
03:56 PM 66.6°F19.2°C 31.5°F-0.3°C 27% 6.7 mph N10.8 kmh N 15.7 mph25.3 kmh 30.15 in1021.0 mb 0.00 in0.0 mm 0.00 in0.0 mm 0.00 in0.0 mm
03:57 PM 66.6°F19.2°C 31.5°F-0.3°C 27% 6.3 mph N10.1 kmh N 15.7 mph25.3 kmh 30.15 in1021.0 mb 0.00 in0.0 mm 0.00 in0.0 mm 0.00 in0.0 mm
03:58 PM 66.7°F19.3°C 32.6°F0.3°C 28% 6.5 mph N10.5 kmh N 15.7 mph25.3 kmh 30.15 in1021.0 mb 0.00 in0.0 mm 0.00 in0.0 mm 0.00 in0.0 mm
03:59 PM 66.7°F19.3°C 33.4°F0.8°C 29% 6.5 mph N10.5 kmh N 15.7 mph25.3 kmh 30.15 in1021.0 mb 0.00 in0.0 mm 0.00 in0.0 mm 0.00 in0.0 mm
04:00 PM 66.7°F19.3°C 31.7°F-0.2°C 27% 6.9 mph N11.1 kmh N 15.7 mph25.3 kmh 30.15 in1021.0 mb 0.00 in0.0 mm 0.00 in0.0 mm 0.00 in0.0 mm
04:01 PM 66.7°F19.3°C 31.7°F-0.2°C 27% 6.7 mph NNE10.8 kmh NNE 15.7 mph25.3 kmh 30.15 in1021.0 mb 0.00 in0.0 mm 0.00 in0.0 mm 0.00 in0.0 mm
04:02 PM 66.7°F19.3°C 32.6°F0.3°C 28% 6.7 mph NNE10.8 kmh NNE 15.7 mph25.3 kmh 30.15 in1021.0 mb 0.00 in0.0 mm 0.00 in0.0 mm 0.00 in0.0 mm
04:03 PM 66.7°F19.3°C 31.7°F-0.2°C 27% 6.1 mph NNE9.8 kmh NNE 10.4 mph16.7 kmh 30.15 in1021.0 mb 0.00 in0.0 mm 0.00 in0.0 mm 0.00 in0.0 mm
04:04 PM 66.7°F19.3°C 31.7°F-0.2°C 27% 6.0 mph NNE9.7 kmh NNE 10.4 mph16.7 kmh 30.15 in1021.0 mb 0.00 in0.0 mm 0.00 in0.0 mm 0.00 in0.0 mm
04:05 PM 66.7°F19.3°C 32.6°F0.3°C 28% 5.5 mph NNE8.9 kmh NNE 10.4 mph16.7 kmh 30.15 in1021.0 mb 0.00 in0.0 mm 0.00 in0.0 mm 0.00 in0.0 mm
04:06 PM 66.7°F19.3°C 33.4°F0.8°C 29% 4.9 mph NNE7.9 kmh NNE 10.4 mph16.7 kmh 30.15 in1021.0 mb 0.00 in0.0 mm 0.00 in0.0 mm 0.00 in0.0 mm
04:07 PM 66.9°F19.4°C 33.6°F0.9°C 29% 4.8 mph NNE7.7 kmh NNE 10.4 mph16.7 kmh 30.15 in1021.0 mb 0.00 in0.0 mm 0.00 in0.0 mm 0.00 in0.0 mm
04:08 PM 66.9°F19.4°C 33.6°F0.9°C 29% 4.7 mph NNE7.6 kmh NNE 10.4 mph16.7 kmh 30.15 in1021.0 mb 0.00 in0.0 mm 0.00 in0.0 mm 0.00 in0.0 mm
04:09 PM 66.9°F19.4°C 33.6°F0.9°C 29% 4.6 mph NE7.4 kmh NE 10.4 mph16.7 kmh 30.15 in1021.0 mb 0.00 in0.0 mm 0.00 in0.0 mm 0.00 in0.0 mm
04:10 PM 66.9°F19.4°C 32.7°F0.4°C 28% 4.2 mph NE6.8 kmh NE 8.6 mph13.8 kmh 30.15 in1021.0 mb 0.00 in0.0 mm 0.00 in0.0 mm 0.00 in0.0 mm
04:11 PM 66.9°F19.4°C 32.7°F0.4°C 28% 4.1 mph NE6.6 kmh NE 8.6 mph13.8 kmh 30.15 in1021.0 mb 0.00 in0.0 mm 0.00 in0.0 mm 0.00 in0.0 mm
04:12 PM 66.9°F19.4°C 33.6°F0.9°C 29% 3.9 mph NE6.3 kmh NE 8.6 mph13.8 kmh 30.15 in1021.0 mb 0.00 in0.0 mm 0.00 in0.0 mm 0.00 in0.0 mm
04:13 PM 66.9°F19.4°C 33.6°F0.9°C 29% 3.9 mph NE6.3 kmh NE 8.6 mph13.8 kmh 30.15 in1021.0 mb 0.00 in0.0 mm 0.00 in0.0 mm 0.00 in0.0 mm
04:14 PM 66.9°F19.4°C 33.6°F0.9°C 29% 3.7 mph NE6.0 kmh NE 8.6 mph13.8 kmh 30.15 in1021.0 mb 0.00 in0.0 mm 0.00 in0.0 mm 0.00 in0.0 mm
04:15 PM 66.9°F19.4°C 33.6°F0.9°C 29% 3.9 mph NE6.3 kmh NE 8.6 mph13.8 kmh 30.15 in1021.0 mb 0.00 in0.0 mm 0.00 in0.0 mm 0.00 in0.0 mm
04:16 PM 66.9°F19.4°C 32.7°F0.4°C 28% 4.6 mph NNE7.4 kmh NNE 8.6 mph13.8 kmh 30.15 in1021.0 mb 0.00 in0.0 mm 0.00 in0.0 mm 0.00 in0.0 mm
04:17 PM 66.9°F19.4°C 31.8°F-0.1°C 27% 4.9 mph NNE7.9 kmh NNE 10.4 mph16.7 kmh 30.15 in1021.0 mb 0.00 in0.0 mm 0.00 in0.0 mm 0.00 in0.0 mm
04:18 PM 66.9°F19.4°C 31.8°F-0.1°C 27% 5.2 mph N8.4 kmh N 10.4 mph16.7 kmh 30.15 in1021.0 mb 0.00 in0.0 mm 0.00 in0.0 mm 0.00 in0.0 mm
04:19 PM 66.9°F19.4°C 32.7°F0.4°C 28% 5.5 mph N8.9 kmh N 10.4 mph16.7 kmh 30.15 in1021.0 mb 0.00 in0.0 mm 0.00 in0.0 mm 0.00 in0.0 mm
04:20 PM 66.9°F19.4°C 32.7°F0.4°C 28% 5.6 mph N9.0 kmh N 10.4 mph16.7 kmh 30.15 in1021.0 mb 0.00 in0.0 mm 0.00 in0.0 mm 0.00 in0.0 mm
04:21 PM 66.9°F19.4°C 33.6°F0.9°C 29% 5.8 mph N9.3 kmh N 10.4 mph16.7 kmh 30.15 in1021.0 mb 0.00 in0.0 mm 0.00 in0.0 mm 0.00 in0.0 mm
04:22 PM 66.9°F19.4°C 33.6°F0.9°C 29% 6.0 mph N9.7 kmh N 10.4 mph16.7 kmh 30.18 in1022.0 mb 0.00 in0.0 mm 0.00 in0.0 mm 0.00 in0.0 mm
04:23 PM 66.9°F19.4°C 32.7°F0.4°C 28% 6.2 mph N10.0 kmh N 11.5 mph18.5 kmh 30.18 in1022.0 mb 0.00 in0.0 mm 0.00 in0.0 mm 0.00 in0.0 mm
04:24 PM 66.9°F19.4°C 32.7°F0.4°C 28% 6.7 mph N10.8 kmh N 11.5 mph18.5 kmh 30.18 in1022.0 mb 0.00 in0.0 mm 0.00 in0.0 mm 0.00 in0.0 mm
04:25 PM 66.9°F19.4°C 33.6°F0.9°C 29% 6.7 mph N10.8 kmh N 11.5 mph18.5 kmh 30.18 in1022.0 mb 0.00 in0.0 mm 0.00 in0.0 mm 0.00 in0.0 mm
04:26 PM 66.9°F19.4°C 33.6°F0.9°C 29% 6.7 mph N10.8 kmh N 11.5 mph18.5 kmh 30.18 in1022.0 mb 0.00 in0.0 mm 0.00 in0.0 mm 0.00 in0.0 mm
04:27 PM 66.9°F19.4°C 33.6°F0.9°C 29% 6.3 mph N10.1 kmh N 11.5 mph18.5 kmh 30.18 in1022.0 mb 0.00 in0.0 mm 0.00 in0.0 mm 0.00 in0.0 mm
04:28 PM 66.9°F19.4°C 33.6°F0.9°C 29% 6.3 mph N10.1 kmh N 11.5 mph18.5 kmh 30.18 in1022.0 mb 0.00 in0.0 mm 0.00 in0.0 mm 0.00 in0.0 mm
04:29 PM 66.9°F19.4°C 33.6°F0.9°C 29% 6.3 mph N10.1 kmh N 11.5 mph18.5 kmh 30.18 in1022.0 mb 0.00 in0.0 mm 0.00 in0.0 mm 0.00 in0.0 mm
04:30 PM 66.9°F19.4°C 33.6°F0.9°C 29% 6.3 mph N10.1 kmh N 11.5 mph18.5 kmh 30.18 in1022.0 mb 0.00 in0.0 mm 0.00 in0.0 mm 0.00 in0.0 mm
04:31 PM 66.9°F19.4°C 33.6°F0.9°C 29% 6.5 mph N10.5 kmh N 11.5 mph18.5 kmh 30.18 in1022.0 mb 0.00 in0.0 mm 0.00 in0.0 mm 0.00 in0.0 mm
04:32 PM 66.9°F19.4°C 33.6°F0.9°C 29% 7.1 mph N11.4 kmh N 12.9 mph20.8 kmh 30.18 in1022.0 mb 0.00 in0.0 mm 0.00 in0.0 mm 0.00 in0.0 mm
04:33 PM 66.9°F19.4°C 33.6°F0.9°C 29% 7.2 mph N11.6 kmh N 12.9 mph20.8 kmh 30.18 in1022.0 mb 0.00 in0.0 mm 0.00 in0.0 mm 0.00 in0.0 mm
04:34 PM 66.9°F19.4°C 33.6°F0.9°C 29% 7.2 mph N11.6 kmh N 12.9 mph20.8 kmh 30.18 in1022.0 mb 0.00 in0.0 mm 0.00 in0.0 mm 0.00 in0.0 mm
04:35 PM 66.9°F19.4°C 33.6°F0.9°C 29% 7.2 mph N11.6 kmh N 12.9 mph20.8 kmh 30.18 in1022.0 mb 0.00 in0.0 mm 0.00 in0.0 mm 0.00 in0.0 mm
04:36 PM 66.9°F19.4°C 33.6°F0.9°C 29% 7.1 mph N11.4 kmh N 12.9 mph20.8 kmh 30.18 in1022.0 mb 0.00 in0.0 mm 0.00 in0.0 mm 0.00 in0.0 mm
04:37 PM 66.9°F19.4°C 34.5°F1.4°C 30% 7.3 mph N11.7 kmh N 12.9 mph20.8 kmh 30.18 in1022.0 mb 0.00 in0.0 mm 0.00 in0.0 mm 0.00 in0.0 mm
04:38 PM 66.9°F19.4°C 34.5°F1.4°C 30% 7.2 mph N11.6 kmh N 12.9 mph20.8 kmh 30.18 in1022.0 mb 0.00 in0.0 mm 0.00 in0.0 mm 0.00 in0.0 mm
04:39 PM 66.9°F19.4°C 34.5°F1.4°C 30% 7.3 mph N11.7 kmh N 12.9 mph20.8 kmh 30.18 in1022.0 mb 0.00 in0.0 mm 0.00 in0.0 mm 0.00 in0.0 mm
04:40 PM 66.9°F19.4°C 34.5°F1.4°C 30% 7.1 mph N11.4 kmh N 12.9 mph20.8 kmh 30.18 in1022.0 mb 0.00 in0.0 mm 0.00 in0.0 mm 0.00 in0.0 mm
04:41 PM 66.9°F19.4°C 33.6°F0.9°C 29% 7.7 mph N12.4 kmh N 16.1 mph25.9 kmh 30.18 in1022.0 mb 0.00 in0.0 mm 0.00 in0.0 mm 0.00 in0.0 mm
04:42 PM 66.9°F19.4°C 34.5°F1.4°C 30% 8.0 mph N12.9 kmh N 16.5 mph26.6 kmh 30.18 in1022.0 mb 0.00 in0.0 mm 0.00 in0.0 mm 0.00 in0.0 mm
04:43 PM 66.9°F19.4°C 34.5°F1.4°C 30% 7.7 mph N12.4 kmh N 16.5 mph26.6 kmh 30.18 in1022.0 mb 0.00 in0.0 mm 0.00 in0.0 mm 0.00 in0.0 mm
04:44 PM 66.9°F19.4°C 34.5°F1.4°C 30% 7.1 mph N11.4 kmh N 16.5 mph26.6 kmh 30.18 in1022.0 mb 0.00 in0.0 mm 0.00 in0.0 mm 0.00 in0.0 mm
04:45 PM 66.9°F19.4°C 34.5°F1.4°C 30% 7.0 mph N11.3 kmh N 16.5 mph26.6 kmh 30.18 in1022.0 mb 0.00 in0.0 mm 0.00 in0.0 mm 0.00 in0.0 mm
04:46 PM 66.9°F19.4°C 34.5°F1.4°C 30% 6.9 mph N11.1 kmh N 16.5 mph26.6 kmh 30.18 in1022.0 mb 0.00 in0.0 mm 0.00 in0.0 mm 0.00 in0.0 mm
04:47 PM 66.9°F19.4°C 34.5°F1.4°C 30% 7.1 mph N11.4 kmh N 16.5 mph26.6 kmh 30.18 in1022.0 mb 0.00 in0.0 mm 0.00 in0.0 mm 0.00 in0.0 mm
04:48 PM 66.9°F19.4°C 34.5°F1.4°C 30% 7.2 mph N11.6 kmh N 16.5 mph26.6 kmh 30.18 in1022.0 mb 0.00 in0.0 mm 0.00 in0.0 mm 0.00 in0.0 mm
04:49 PM 66.9°F19.4°C 34.5°F1.4°C 30% 7.1 mph N11.4 kmh N 16.5 mph26.6 kmh 30.18 in1022.0 mb 0.00 in0.0 mm 0.00 in0.0 mm 0.00 in0.0 mm
04:50 PM 67.1°F19.5°C 34.6°F1.4°C 30% 7.0 mph N11.3 kmh N 16.5 mph26.6 kmh 30.18 in1022.0 mb 0.00 in0.0 mm 0.00 in0.0 mm 0.00 in0.0 mm
04:51 PM 67.1°F19.5°C 35.4°F1.9°C 31% 5.7 mph N9.2 kmh N 16.5 mph26.6 kmh 30.18 in1022.0 mb 0.00 in0.0 mm 0.00 in0.0 mm 0.00 in0.0 mm
04:52 PM 67.1°F19.5°C 35.4°F1.9°C 31% 5.6 mph N9.0 kmh N 16.5 mph26.6 kmh 30.18 in1022.0 mb 0.00 in0.0 mm 0.00 in0.0 mm 0.00 in0.0 mm
04:53 PM 67.1°F19.5°C 35.4°F1.9°C 31% 4.9 mph N7.9 kmh N 9.3 mph15.0 kmh 30.18 in1022.0 mb 0.00 in0.0 mm 0.00 in0.0 mm 0.00 in0.0 mm
04:54 PM 67.1°F19.5°C 34.6°F1.4°C 30% 5.0 mph N8.0 kmh N 9.3 mph15.0 kmh 30.18 in1022.0 mb 0.00 in0.0 mm 0.00 in0.0 mm 0.00 in0.0 mm
04:55 PM 67.1°F19.5°C 35.4°F1.9°C 31% 5.0 mph N8.0 kmh N 9.3 mph15.0 kmh 30.18 in1022.0 mb 0.00 in0.0 mm 0.00 in0.0 mm 0.00 in0.0 mm
04:56 PM 67.1°F19.5°C 35.4°F1.9°C 31% 4.9 mph NNE7.9 kmh NNE 9.3 mph15.0 kmh 30.18 in1022.0 mb 0.00 in0.0 mm 0.00 in0.0 mm 0.00 in0.0 mm
04:57 PM 67.1°F19.5°C 35.4°F1.9°C 31% 4.1 mph NNE6.6 kmh NNE 7.9 mph12.7 kmh 30.18 in1022.0 mb 0.00 in0.0 mm 0.00 in0.0 mm 0.00 in0.0 mm
04:58 PM 67.3°F19.6°C 35.6°F2.0°C 31% 3.5 mph NNE5.6 kmh NNE 7.9 mph12.7 kmh 30.18 in1022.0 mb 0.00 in0.0 mm 0.00 in0.0 mm 0.00 in0.0 mm
04:59 PM 67.3°F19.6°C 35.6°F2.0°C 31% 2.8 mph NNE4.5 kmh NNE 6.4 mph10.3 kmh 30.18 in1022.0 mb 0.00 in0.0 mm 0.00 in0.0 mm 0.00 in0.0 mm
05:00 PM 67.3°F19.6°C 35.6°F2.0°C 31% 2.8 mph NNE4.5 kmh NNE 6.4 mph10.3 kmh 30.18 in1022.0 mb 0.00 in0.0 mm 0.00 in0.0 mm 0.00 in0.0 mm
05:01 PM 67.3°F19.6°C 35.6°F2.0°C 31% 3.2 mph NNE5.1 kmh NNE 6.4 mph10.3 kmh 30.18 in1022.0 mb 0.00 in0.0 mm 0.00 in0.0 mm 0.00 in0.0 mm
05:02 PM 67.3°F19.6°C 35.6°F2.0°C 31% 3.1 mph NE5.0 kmh NE 6.4 mph10.3 kmh 30.18 in1022.0 mb 0.00 in0.0 mm 0.00 in0.0 mm 0.00 in0.0 mm
05:03 PM 67.3°F19.6°C 35.6°F2.0°C 31% 3.3 mph NE5.3 kmh NE 8.9 mph14.3 kmh 30.18 in1022.0 mb 0.00 in0.0 mm 0.00 in0.0 mm 0.00 in0.0 mm
05:04 PM 67.3°F19.6°C 35.6°F2.0°C 31% 3.2 mph NE5.1 kmh NE 8.9 mph14.3 kmh 30.18 in1022.0 mb 0.00 in0.0 mm 0.00 in0.0 mm 0.00 in0.0 mm
05:05 PM 67.3°F19.6°C 35.6°F2.0°C 31% 3.8 mph NE6.1 kmh NE 11.8 mph19.0 kmh 30.18 in1022.0 mb 0.00 in0.0 mm 0.00 in0.0 mm 0.00 in0.0 mm
05:06 PM 67.3°F19.6°C 35.6°F2.0°C 31% 3.8 mph NNE6.1 kmh NNE 11.8 mph19.0 kmh 30.18 in1022.0 mb 0.00 in0.0 mm 0.00 in0.0 mm 0.00 in0.0 mm
05:07 PM 67.1°F19.5°C 34.6°F1.4°C 30% 4.4 mph NNE7.1 kmh NNE 11.8 mph19.0 kmh 30.18 in1022.0 mb 0.00 in0.0 mm 0.00 in0.0 mm 0.00 in0.0 mm
05:08 PM 67.1°F19.5°C 34.6°F1.4°C 30% 5.1 mph NNE8.2 kmh NNE 11.8 mph19.0 kmh 30.18 in1022.0 mb 0.00 in0.0 mm 0.00 in0.0 mm 0.00 in0.0 mm
05:09 PM 67.1°F19.5°C 34.6°F1.4°C 30% 5.8 mph NNE9.3 kmh NNE 11.8 mph19.0 kmh 30.18 in1022.0 mb 0.00 in0.0 mm 0.00 in0.0 mm 0.00 in0.0 mm
05:10 PM 67.1°F19.5°C 34.6°F1.4°C 30% 6.0 mph NNE9.7 kmh NNE 11.8 mph19.0 kmh 30.18 in1022.0 mb 0.00 in0.0 mm 0.00 in0.0 mm 0.00 in0.0 mm
05:11 PM 67.1°F19.5°C 34.6°F1.4°C 30% 6.2 mph N10.0 kmh N 11.8 mph19.0 kmh 30.18 in1022.0 mb 0.00 in0.0 mm 0.00 in0.0 mm 0.00 in0.0 mm
05:12 PM 67.1°F19.5°C 35.4°F1.9°C 31% 6.1 mph N9.8 kmh N 11.8 mph19.0 kmh 30.18 in1022.0 mb 0.00 in0.0 mm 0.00 in0.0 mm 0.00 in0.0 mm
05:13 PM 67.1°F19.5°C 35.4°F1.9°C 31% 6.1 mph N9.8 kmh N 11.8 mph19.0 kmh 30.18 in1022.0 mb 0.00 in0.0 mm 0.00 in0.0 mm 0.00 in0.0 mm
05:14 PM 67.1°F19.5°C 35.4°F1.9°C 31% 6.3 mph N10.1 kmh N 11.8 mph19.0 kmh 30.18 in1022.0 mb 0.00 in0.0 mm 0.00 in0.0 mm 0.00 in0.0 mm
05:15 PM 67.1°F19.5°C 35.4°F1.9°C 31% 5.8 mph N9.3 kmh N 8.9 mph14.3 kmh 30.18 in1022.0 mb 0.00 in0.0 mm 0.00 in0.0 mm 0.00 in0.0 mm
05:16 PM 67.1°F19.5°C 35.4°F1.9°C 31% 5.7 mph N9.2 kmh N 8.9 mph14.3 kmh 30.18 in1022.0 mb 0.00 in0.0 mm 0.00 in0.0 mm 0.00 in0.0 mm
05:17 PM 67.1°F19.5°C 35.4°F1.9°C 31% 5.6 mph N9.0 kmh N 8.9 mph14.3 kmh 30.18 in1022.0 mb 0.00 in0.0 mm 0.00 in0.0 mm 0.00 in0.0 mm
05:18 PM 67.1°F19.5°C 35.4°F1.9°C 31% 5.4 mph N8.7 kmh N 8.9 mph14.3 kmh 30.18 in1022.0 mb 0.00 in0.0 mm 0.00 in0.0 mm 0.00 in0.0 mm
05:19 PM 67.1°F19.5°C 35.4°F1.9°C 31% 5.6 mph N9.0 kmh N 12.5 mph20.1 kmh 30.18 in1022.0 mb 0.00 in0.0 mm 0.00 in0.0 mm 0.00 in0.0 mm
05:20 PM 67.1°F19.5°C 35.4°F1.9°C 31% 5.5 mph N8.9 kmh N 12.5 mph20.1 kmh 30.18 in1022.0 mb 0.00 in0.0 mm 0.00 in0.0 mm 0.00 in0.0 mm
05:21 PM 67.1°F19.5°C 35.4°F1.9°C 31% 5.9 mph N9.5 kmh N 12.5 mph20.1 kmh 30.18 in1022.0 mb 0.00 in0.0 mm 0.00 in0.0 mm 0.00 in0.0 mm
05:22 PM 67.1°F19.5°C 35.4°F1.9°C 31% 6.4 mph N10.3 kmh N 12.5 mph20.1 kmh 30.18 in1022.0 mb 0.00 in0.0 mm 0.00 in0.0 mm 0.00 in0.0 mm
05:23 PM 67.1°F19.5°C 35.4°F1.9°C 31% 6.4 mph N10.3 kmh N 12.5 mph20.1 kmh 30.18 in1022.0 mb 0.00 in0.0 mm 0.00 in0.0 mm 0.00 in0.0 mm
05:24 PM 67.1°F19.5°C 35.4°F1.9°C 31% 7.0 mph N11.3 kmh N 13.6 mph21.9 kmh 30.18 in1022.0 mb 0.00 in0.0 mm 0.00 in0.0 mm 0.00 in0.0 mm
05:25 PM 67.1°F19.5°C 35.4°F1.9°C 31% 7.2 mph N11.6 kmh N 13.6 mph21.9 kmh 30.18 in1022.0 mb 0.00 in0.0 mm 0.00 in0.0 mm 0.00 in0.0 mm
05:26 PM 67.1°F19.5°C 35.4°F1.9°C 31% 7.3 mph N11.7 kmh N 13.6 mph21.9 kmh 30.18 in1022.0 mb 0.00 in0.0 mm 0.00 in0.0 mm 0.00 in0.0 mm
05:27 PM 67.1°F19.5°C 35.4°F1.9°C 31% 7.5 mph N12.1 kmh N 13.6 mph21.9 kmh 30.18 in1022.0 mb 0.00 in0.0 mm 0.00 in0.0 mm 0.00 in0.0 mm
05:28 PM 67.1°F19.5°C 35.4°F1.9°C 31% 7.8 mph N12.6 kmh N 13.6 mph21.9 kmh 30.18 in1022.0 mb 0.00 in0.0 mm 0.00 in0.0 mm 0.00 in0.0 mm
05:29 PM 67.1°F19.5°C 35.4°F1.9°C 31% 7.4 mph N11.9 kmh N 13.6 mph21.9 kmh 30.18 in1022.0 mb 0.00 in0.0 mm 0.00 in0.0 mm 0.00 in0.0 mm
05:30 PM 67.1°F19.5°C 35.4°F1.9°C 31% 7.4 mph N11.9 kmh N 13.6 mph21.9 kmh 30.18 in1022.0 mb 0.00 in0.0 mm 0.00 in0.0 mm 0.00 in0.0 mm
05:31 PM 67.1°F19.5°C 35.4°F1.9°C 31% 6.7 mph N10.8 kmh N 13.6 mph21.9 kmh 30.18 in1022.0 mb 0.00 in0.0 mm 0.00 in0.0 mm 0.00 in0.0 mm
05:32 PM 67.1°F19.5°C 35.4°F1.9°C 31% 6.7 mph N10.8 kmh N 13.6 mph21.9 kmh 30.18 in1022.0 mb 0.00 in0.0 mm 0.00 in0.0 mm 0.00 in0.0 mm
05:33 PM 67.1°F19.5°C 35.4°F1.9°C 31% 6.5 mph N10.5 kmh N 13.6 mph21.9 kmh 30.18 in1022.0 mb 0.00 in0.0 mm 0.00 in0.0 mm 0.00 in0.0 mm
05:34 PM 67.1°F19.5°C 35.4°F1.9°C 31% 6.3 mph N10.1 kmh N 13.6 mph21.9 kmh 30.18 in1022.0 mb 0.00 in0.0 mm 0.00 in0.0 mm 0.00 in0.0 mm
05:35 PM 66.9°F19.4°C 35.3°F1.8°C 31% 5.8 mph N9.3 kmh N 8.9 mph14.3 kmh 30.18 in1022.0 mb 0.00 in0.0 mm 0.00 in0.0 mm 0.00 in0.0 mm
05:36 PM 66.9°F19.4°C 35.3°F1.8°C 31% 5.6 mph N9.0 kmh N 8.9 mph14.3 kmh 30.18 in1022.0 mb 0.00 in0.0 mm 0.00 in0.0 mm 0.00 in0.0 mm
05:37 PM 67.1°F19.5°C 35.4°F1.9°C 31% 5.1 mph N8.2 kmh N 8.9 mph14.3 kmh 30.18 in1022.0 mb 0.00 in0.0 mm 0.00 in0.0 mm 0.00 in0.0 mm
05:38 PM 67.1°F19.5°C 36.2°F2.3°C 32% 4.2 mph NNE6.8 kmh NNE 8.9 mph14.3 kmh 30.18 in1022.0 mb 0.00 in0.0 mm 0.00 in0.0 mm 0.00 in0.0 mm
05:39 PM 67.1°F19.5°C 36.2°F2.3°C 32% 4.0 mph NNE6.4 kmh NNE 8.9 mph14.3 kmh 30.18 in1022.0 mb 0.00 in0.0 mm 0.00 in0.0 mm 0.00 in0.0 mm
05:40 PM 67.1°F19.5°C 36.2°F2.3°C 32% 3.7 mph NNE6.0 kmh NNE 8.9 mph14.3 kmh 30.18 in1022.0 mb 0.00 in0.0 mm 0.00 in0.0 mm 0.00 in0.0 mm
05:41 PM 67.1°F19.5°C 36.2°F2.3°C 32% 3.8 mph NNE6.1 kmh NNE 8.9 mph14.3 kmh 30.18 in1022.0 mb 0.00 in0.0 mm 0.00 in0.0 mm 0.00 in0.0 mm
05:42 PM 67.1°F19.5°C 36.2°F2.3°C 32% 3.5 mph NE5.6 kmh NE 8.9 mph14.3 kmh 30.18 in1022.0 mb 0.00 in0.0 mm 0.00 in0.0 mm 0.00 in0.0 mm
05:43 PM 67.3°F19.6°C 36.4°F2.4°C 32% 3.3 mph NE5.3 kmh NE 8.9 mph14.3 kmh 30.18 in1022.0 mb 0.00 in0.0 mm 0.00 in0.0 mm 0.00 in0.0 mm
05:44 PM 67.3°F19.6°C 36.4°F2.4°C 32% 2.8 mph NE4.5 kmh NE 8.9 mph14.3 kmh 30.18 in1022.0 mb 0.00 in0.0 mm 0.00 in0.0 mm 0.00 in0.0 mm
05:45 PM 67.3°F19.6°C 36.4°F2.4°C 32% 2.1 mph NE3.4 kmh NE 5.7 mph9.2 kmh 30.18 in1022.0 mb 0.00 in0.0 mm 0.00 in0.0 mm 0.00 in0.0 mm
05:46 PM 67.3°F19.6°C 36.4°F2.4°C 32% 2.0 mph NE3.2 kmh NE 5.7 mph9.2 kmh 30.18 in1022.0 mb 0.00 in0.0 mm 0.00 in0.0 mm 0.00 in0.0 mm
05:47 PM 67.3°F19.6°C 36.4°F2.4°C 32% 2.4 mph NE3.9 kmh NE 5.7 mph9.2 kmh 30.18 in1022.0 mb 0.00 in0.0 mm 0.00 in0.0 mm 0.00 in0.0 mm
05:48 PM 67.1°F19.5°C 36.2°F2.3°C 32% 2.5 mph NE4.0 kmh NE 5.7 mph9.2 kmh 30.18 in1022.0 mb 0.00 in0.0 mm 0.00 in0.0 mm 0.00 in0.0 mm
05:49 PM 67.1°F19.5°C 36.2°F2.3°C 32% 2.6 mph NE4.2 kmh NE 5.7 mph9.2 kmh 30.18 in1022.0 mb 0.00 in0.0 mm 0.00 in0.0 mm 0.00 in0.0 mm
05:50 PM 67.1°F19.5°C 36.2°F2.3°C 32% 2.6 mph NE4.2 kmh NE 5.7 mph9.2 kmh 30.18 in1022.0 mb 0.00 in0.0 mm 0.00 in0.0 mm 0.00 in0.0 mm
05:51 PM 66.9°F19.4°C 36.1°F2.3°C 32% 2.7 mph NE4.3 kmh NE 6.4 mph10.3 kmh 30.18 in1022.0 mb 0.00 in0.0 mm 0.00 in0.0 mm 0.00 in0.0 mm
05:52 PM 66.9°F19.4°C 36.1°F2.3°C 32% 2.2 mph NE3.5 kmh NE 6.4 mph10.3 kmh 30.18 in1022.0 mb 0.00 in0.0 mm 0.00 in0.0 mm 0.00 in0.0 mm
05:53 PM 66.9°F19.4°C 36.1°F2.3°C 32% 2.3 mph NE3.7 kmh NE 6.4 mph10.3 kmh 30.18 in1022.0 mb 0.00 in0.0 mm 0.00 in0.0 mm 0.00 in0.0 mm
05:54 PM 66.7°F19.3°C 35.1°F1.7°C 31% 2.3 mph NE3.7 kmh NE 6.4 mph10.3 kmh 30.18 in1022.0 mb 0.00 in0.0 mm 0.00 in0.0 mm 0.00 in0.0 mm
05:55 PM 66.7°F19.3°C 35.9°F2.2°C 32% 2.7 mph NE4.3 kmh NE 6.4 mph10.3 kmh 30.18 in1022.0 mb 0.00 in0.0 mm 0.00 in0.0 mm 0.00 in0.0 mm
05:56 PM 66.7°F19.3°C 35.9°F2.2°C 32% 2.9 mph NE4.7 kmh NE 6.4 mph10.3 kmh 30.18 in1022.0 mb 0.00 in0.0 mm 0.00 in0.0 mm 0.00 in0.0 mm
05:57 PM 66.7°F19.3°C 35.9°F2.2°C 32% 3.1 mph NE5.0 kmh NE 6.4 mph10.3 kmh 30.18 in1022.0 mb 0.00 in0.0 mm 0.00 in0.0 mm 0.00 in0.0 mm
05:58 PM 66.6°F19.2°C 35.0°F1.7°C 31% 3.3 mph NNE5.3 kmh NNE 6.4 mph10.3 kmh 30.18 in1022.0 mb 0.00 in0.0 mm 0.00 in0.0 mm 0.00 in0.0 mm
05:59 PM 66.6°F19.2°C 35.8°F2.1°C 32% 3.3 mph NNE5.3 kmh NNE 6.4 mph10.3 kmh 30.18 in1022.0 mb 0.00 in0.0 mm 0.00 in0.0 mm 0.00 in0.0 mm
06:00 PM 66.4°F19.1°C 35.6°F2.0°C 32% 3.3 mph NNE5.3 kmh NNE 6.4 mph10.3 kmh 30.18 in1022.0 mb 0.00 in0.0 mm 0.00 in0.0 mm 0.00 in0.0 mm
06:01 PM 66.4°F19.1°C 35.6°F2.0°C 32% 3.1 mph N5.0 kmh N 5.7 mph9.2 kmh 30.18 in1022.0 mb 0.00 in0.0 mm 0.00 in0.0 mm 0.00 in0.0 mm
06:02 PM 66.4°F19.1°C 35.6°F2.0°C 32% 3.3 mph N5.3 kmh N 5.7 mph9.2 kmh 30.18 in1022.0 mb 0.00 in0.0 mm 0.00 in0.0 mm 0.00 in0.0 mm
06:03 PM 66.4°F19.1°C 35.6°F2.0°C 32% 3.4 mph N5.5 kmh N 5.7 mph9.2 kmh 30.18 in1022.0 mb 0.00 in0.0 mm 0.00 in0.0 mm 0.00 in0.0 mm
06:04 PM 66.2°F19.0°C 35.4°F1.9°C 32% 3.7 mph N6.0 kmh N 5.7 mph9.2 kmh 30.18 in1022.0 mb 0.00 in0.0 mm 0.00 in0.0 mm 0.00 in0.0 mm
06:05 PM 66.2°F19.0°C 35.4°F1.9°C 32% 3.5 mph N5.6 kmh N 5.7 mph9.2 kmh 30.18 in1022.0 mb 0.00 in0.0 mm 0.00 in0.0 mm 0.00 in0.0 mm
06:06 PM 66.2°F19.0°C 35.4°F1.9°C 32% 3.4 mph N5.5 kmh N 5.7 mph9.2 kmh 30.18 in1022.0 mb 0.00 in0.0 mm 0.00 in0.0 mm 0.00 in0.0 mm
06:07 PM 66.0°F18.9°C 35.3°F1.8°C 32% 3.0 mph N4.8 kmh N 5.4 mph8.7 kmh 30.18 in1022.0 mb 0.00 in0.0 mm 0.00 in0.0 mm 0.00 in0.0 mm
06:08 PM 66.0°F18.9°C 36.1°F2.3°C 33% 2.6 mph N4.2 kmh N 5.4 mph8.7 kmh 30.18 in1022.0 mb 0.00 in0.0 mm 0.00 in0.0 mm 0.00 in0.0 mm
06:09 PM 66.0°F18.9°C 36.1°F2.3°C 33% 2.2 mph N3.5 kmh N 5.4 mph8.7 kmh 30.18 in1022.0 mb 0.00 in0.0 mm 0.00 in0.0 mm 0.00 in0.0 mm
06:10 PM 66.0°F18.9°C 36.1°F2.3°C 33% 2.2 mph N3.5 kmh N 5.4 mph8.7 kmh 30.18 in1022.0 mb 0.00 in0.0 mm 0.00 in0.0 mm 0.00 in0.0 mm
06:11 PM 65.8°F18.8°C 35.9°F2.2°C 33% 1.8 mph N2.9 kmh N 5.4 mph8.7 kmh 30.18 in1022.0 mb 0.00 in0.0 mm 0.00 in0.0 mm 0.00 in0.0 mm
06:12 PM 65.8°F18.8°C 35.9°F2.2°C 33% 1.8 mph N2.9 kmh N 5.4 mph8.7 kmh 30.18 in1022.0 mb 0.00 in0.0 mm 0.00 in0.0 mm 0.00 in0.0 mm
06:13 PM 65.8°F18.8°C 35.9°F2.2°C 33% 1.3 mph NNE2.1 kmh NNE 4.3 mph6.9 kmh 30.18 in1022.0 mb 0.00 in0.0 mm 0.00 in0.0 mm 0.00 in0.0 mm
06:14 PM 65.8°F18.8°C 35.9°F2.2°C 33% 1.0 mph NNE1.6 kmh NNE 3.6 mph5.8 kmh 30.18 in1022.0 mb 0.00 in0.0 mm 0.00 in0.0 mm 0.00 in0.0 mm
06:15 PM 65.8°F18.8°C 35.9°F2.2°C 33% 0.8 mph NNE1.3 kmh NNE 3.6 mph5.8 kmh 30.18 in1022.0 mb 0.00 in0.0 mm 0.00 in0.0 mm 0.00 in0.0 mm
06:16 PM 65.8°F18.8°C 35.9°F2.2°C 33% 0.5 mph NNE0.8 kmh NNE 2.1 mph3.4 kmh 30.18 in1022.0 mb 0.00 in0.0 mm 0.00 in0.0 mm 0.00 in0.0 mm
06:17 PM 65.8°F18.8°C 35.9°F2.2°C 33% 0.7 mph N1.1 kmh N 5.0 mph8.0 kmh 30.18 in1022.0 mb 0.00 in0.0 mm 0.00 in0.0 mm 0.00 in0.0 mm
06:18 PM 65.8°F18.8°C 35.9°F2.2°C 33% 1.0 mph N1.6 kmh N 5.0 mph8.0 kmh 30.18 in1022.0 mb 0.00 in0.0 mm 0.00 in0.0 mm 0.00 in0.0 mm
06:19 PM 65.8°F18.8°C 35.9°F2.2°C 33% 1.2 mph N1.9 kmh N 5.0 mph8.0 kmh 30.18 in1022.0 mb 0.00 in0.0 mm 0.00 in0.0 mm 0.00 in0.0 mm
06:20 PM 65.7°F18.7°C 35.8°F2.1°C 33% 1.6 mph N2.6 kmh N 5.0 mph8.0 kmh 30.18 in1022.0 mb 0.00 in0.0 mm 0.00 in0.0 mm 0.00 in0.0 mm
06:21 PM 65.7°F18.7°C 35.8°F2.1°C 33% 1.8 mph N2.9 kmh N 5.0 mph8.0 kmh 30.18 in1022.0 mb 0.00 in0.0 mm 0.00 in0.0 mm 0.00 in0.0 mm
06:22 PM 65.7°F18.7°C 35.8°F2.1°C 33% 1.6 mph N2.6 kmh N 5.0 mph8.0 kmh 30.18 in1022.0 mb 0.00 in0.0 mm 0.00 in0.0 mm 0.00 in0.0 mm
06:23 PM 65.5°F18.6°C 35.6°F2.0°C 33% 2.0 mph N3.2 kmh N 5.0 mph8.0 kmh 30.18 in1022.0 mb 0.00 in0.0 mm 0.00 in0.0 mm 0.00 in0.0 mm
06:24 PM 65.5°F18.6°C 35.6°F2.0°C 33% 2.3 mph N3.7 kmh N 5.0 mph8.0 kmh 30.18 in1022.0 mb 0.00 in0.0 mm 0.00 in0.0 mm 0.00 in0.0 mm
06:25 PM 65.5°F18.6°C 35.6°F2.0°C 33% 2.6 mph NNE4.2 kmh NNE 5.0 mph8.0 kmh 30.18 in1022.0 mb 0.00 in0.0 mm 0.00 in0.0 mm 0.00 in0.0 mm
06:26 PM 65.5°F18.6°C 35.6°F2.0°C 33% 2.9 mph NNE4.7 kmh NNE 5.0 mph8.0 kmh 30.18 in1022.0 mb 0.00 in0.0 mm 0.00 in0.0 mm 0.00 in0.0 mm
06:27 PM 65.5°F18.6°C 35.6°F2.0°C 33% 2.5 mph NNE4.0 kmh NNE 4.7 mph7.6 kmh 30.18 in1022.0 mb 0.00 in0.0 mm 0.00 in0.0 mm 0.00 in0.0 mm
06:28 PM 65.3°F18.5°C 35.4°F1.9°C 33% 2.3 mph NNE3.7 kmh NNE 4.7 mph7.6 kmh 30.18 in1022.0 mb 0.00 in0.0 mm 0.00 in0.0 mm 0.00 in0.0 mm
06:29 PM 65.3°F18.5°C 35.4°F1.9°C 33% 2.0 mph NNE3.2 kmh NNE 4.7 mph7.6 kmh 30.18 in1022.0 mb 0.00 in0.0 mm 0.00 in0.0 mm 0.00 in0.0 mm
06:30 PM 65.3°F18.5°C 36.2°F2.3°C 34% 1.6 mph NE2.6 kmh NE 4.7 mph7.6 kmh 30.18 in1022.0 mb 0.00 in0.0 mm 0.00 in0.0 mm 0.00 in0.0 mm
06:31 PM 65.1°F18.4°C 36.0°F2.2°C 34% 1.4 mph NNE2.3 kmh NNE 4.7 mph7.6 kmh 30.18 in1022.0 mb 0.00 in0.0 mm 0.00 in0.0 mm 0.00 in0.0 mm
06:32 PM 65.1°F18.4°C 36.0°F2.2°C 34% 1.4 mph NNE2.3 kmh NNE 4.7 mph7.6 kmh 30.18 in1022.0 mb 0.00 in0.0 mm 0.00 in0.0 mm 0.00 in0.0 mm
06:33 PM 65.1°F18.4°C 36.0°F2.2°C 34% 1.0 mph NE1.6 kmh NE 3.9 mph6.3 kmh 30.18 in1022.0 mb 0.00 in0.0 mm 0.00 in0.0 mm 0.00 in0.0 mm
06:34 PM 65.1°F18.4°C 36.0°F2.2°C 34% 0.7 mph NE1.1 kmh NE 3.9 mph6.3 kmh 30.18 in1022.0 mb 0.00 in0.0 mm 0.00 in0.0 mm 0.00 in0.0 mm
06:35 PM 64.9°F18.3°C 35.9°F2.2°C 34% 0.7 mph NE1.1 kmh NE 3.9 mph6.3 kmh 30.18 in1022.0 mb 0.00 in0.0 mm 0.00 in0.0 mm 0.00 in0.0 mm
06:36 PM 64.9°F18.3°C 35.9°F2.2°C 34% 0.1 mph NNE0.2 kmh NNE 1.8 mph2.9 kmh 30.18 in1022.0 mb 0.00 in0.0 mm 0.00 in0.0 mm 0.00 in0.0 mm
06:37 PM 64.9°F18.3°C 35.9°F2.2°C 34% 0.1 mph NNE0.2 kmh NNE 1.8 mph2.9 kmh 30.18 in1022.0 mb 0.00 in0.0 mm 0.00 in0.0 mm 0.00 in0.0 mm
06:38 PM 64.8°F18.2°C 35.7°F2.1°C 34% Calm Calm -- 30.18 in1022.0 mb 0.00 in0.0 mm 0.00 in0.0 mm 0.00 in0.0 mm
06:39 PM 64.8°F18.2°C 35.7°F2.1°C 34% Calm Calm -- 30.18 in1022.0 mb 0.00 in0.0 mm 0.00 in0.0 mm 0.00 in0.0 mm
06:40 PM 64.8°F18.2°C 35.7°F2.1°C 34% Calm Calm -- 30.18 in1022.0 mb 0.00 in0.0 mm 0.00 in0.0 mm 0.00 in0.0 mm
06:41 PM 64.8°F18.2°C 36.5°F2.5°C 35% Calm Calm -- 30.18 in1022.0 mb 0.00 in0.0 mm 0.00 in0.0 mm 0.00 in0.0 mm
06:42 PM 64.6°F18.1°C 35.6°F2.0°C 34% Calm Calm -- 30.18 in1022.0 mb 0.00 in0.0 mm 0.00 in0.0 mm 0.00 in0.0 mm
06:43 PM 64.6°F18.1°C 35.6°F2.0°C 34% Calm Calm -- 30.18 in1022.0 mb 0.00 in0.0 mm 0.00 in0.0 mm 0.00 in0.0 mm
06:44 PM 64.6°F18.1°C 35.6°F2.0°C 34% Calm Calm -- 30.18 in1022.0 mb 0.00 in0.0 mm 0.00 in0.0 mm 0.00 in0.0 mm
06:45 PM 64.6°F18.1°C 36.3°F2.4°C 35% Calm Calm -- 30.18 in1022.0 mb 0.00 in0.0 mm 0.00 in0.0 mm 0.00 in0.0 mm
06:46 PM 64.4°F18.0°C 36.1°F2.3°C 35% Calm Calm -- 30.18 in1022.0 mb 0.00 in0.0 mm 0.00 in0.0 mm 0.00 in0.0 mm
06:47 PM 64.4°F18.0°C 36.1°F2.3°C 35% Calm Calm -- 30.18 in1022.0 mb 0.00 in0.0 mm 0.00 in0.0 mm 0.00 in0.0 mm
06:48 PM 64.4°F18.0°C 36.1°F2.3°C 35% Calm Calm -- 30.18 in1022.0 mb 0.00 in0.0 mm 0.00 in0.0 mm 0.00 in0.0 mm
06:49 PM 64.4°F18.0°C 36.1°F2.3°C 35% Calm Calm -- 30.18 in1022.0 mb 0.00 in0.0 mm 0.00 in0.0 mm 0.00 in0.0 mm
06:50 PM 64.2°F17.9°C 36.7°F2.6°C 36% Calm Calm -- 30.18 in1022.0 mb 0.00 in0.0 mm 0.00 in0.0 mm 0.00 in0.0 mm
06:51 PM 64.2°F17.9°C 36.7°F2.6°C 36% Calm Calm -- 30.18 in1022.0 mb 0.00 in0.0 mm 0.00 in0.0 mm 0.00 in0.0 mm
06:52 PM 64.2°F17.9°C 36.7°F2.6°C 36% Calm Calm -- 30.18 in1022.0 mb 0.00 in0.0 mm 0.00 in0.0 mm 0.00 in0.0 mm
06:53 PM 64.0°F17.8°C 37.2°F2.9°C 37% Calm Calm -- 30.18 in1022.0 mb 0.00 in0.0 mm 0.00 in0.0 mm 0.00 in0.0 mm
06:54 PM 64.0°F17.8°C 37.2°F2.9°C 37% Calm Calm -- 30.18 in1022.0 mb 0.00 in0.0 mm 0.00 in0.0 mm 0.00 in0.0 mm
06:55 PM 64.0°F17.8°C 37.2°F2.9°C 37% Calm Calm -- 30.18 in1022.0 mb 0.00 in0.0 mm 0.00 in0.0 mm 0.00 in0.0 mm
06:56 PM 64.0°F17.8°C 37.2°F2.9°C 37% Calm Calm -- 30.18 in1022.0 mb 0.00 in0.0 mm 0.00 in0.0 mm 0.00 in0.0 mm
06:57 PM 63.9°F17.7°C 37.1°F2.8°C 37% Calm Calm -- 30.18 in1022.0 mb 0.00 in0.0 mm 0.00 in0.0 mm 0.00 in0.0 mm
06:58 PM 63.9°F17.7°C 37.1°F2.8°C 37% Calm Calm -- 30.18 in1022.0 mb 0.00 in0.0 mm 0.00 in0.0 mm 0.00 in0.0 mm
06:59 PM 63.7°F17.6°C 36.9°F2.7°C 37% Calm Calm -- 30.18 in1022.0 mb 0.00 in0.0 mm 0.00 in0.0 mm 0.00 in0.0 mm
07:00 PM 63.7°F17.6°C 36.9°F2.7°C 37% Calm Calm -- 30.18 in1022.0 mb 0.00 in0.0 mm 0.00 in0.0 mm 0.00 in0.0 mm
07:01 PM 63.7°F17.6°C 36.9°F2.7°C 37% Calm Calm -- 30.18 in1022.0 mb 0.00 in0.0 mm 0.00 in0.0 mm 0.00 in0.0 mm
07:02 PM 63.5°F17.5°C 37.4°F3.0°C 38% 0.1 mph NNE0.2 kmh NNE 1.8 mph2.9 kmh 30.18 in1022.0 mb 0.00 in0.0 mm 0.00 in0.0 mm 0.00 in0.0 mm
07:03 PM 63.5°F17.5°C 37.4°F3.0°C 38% 0.1 mph NNE0.2 kmh NNE 1.8 mph2.9 kmh 30.18 in1022.0 mb 0.00 in0.0 mm 0.00 in0.0 mm 0.00 in0.0 mm
07:04 PM 63.5°F17.5°C 37.4°F3.0°C 38% 0.1 mph NNE0.2 kmh NNE 1.8 mph2.9 kmh 30.18 in1022.0 mb 0.00 in0.0 mm 0.00 in0.0 mm 0.00 in0.0 mm
07:05 PM 63.3°F17.4°C 37.3°F2.9°C 38% 0.1 mph NNE0.2 kmh NNE 1.8 mph2.9 kmh 30.18 in1022.0 mb 0.00 in0.0 mm 0.00 in0.0 mm 0.00 in0.0 mm
07:06 PM 63.3°F17.4°C 37.3°F2.9°C 38% 0.1 mph NNE0.2 kmh NNE 1.8 mph2.9 kmh 30.18 in1022.0 mb 0.00 in0.0 mm 0.00 in0.0 mm 0.00 in0.0 mm
07:07 PM 63.1°F17.3°C 37.1°F2.8°C 38% 0.1 mph NNE0.2 kmh NNE 1.8 mph2.9 kmh 30.21 in1023.0 mb 0.00 in0.0 mm 0.00 in0.0 mm 0.00 in0.0 mm
07:08 PM 63.1°F17.3°C 37.1°F2.8°C 38% 0.1 mph NNE0.2 kmh NNE 1.8 mph2.9 kmh 30.21 in1023.0 mb 0.00 in0.0 mm 0.00 in0.0 mm 0.00 in0.0 mm
07:09 PM 63.1°F17.3°C 37.1°F2.8°C 38% 0.1 mph NNE0.2 kmh NNE 1.8 mph2.9 kmh 30.21 in1023.0 mb 0.00 in0.0 mm 0.00 in0.0 mm 0.00 in0.0 mm
07:10 PM 63.1°F17.3°C 37.1°F2.8°C 38% 0.1 mph NNE0.2 kmh NNE 1.8 mph2.9 kmh 30.21 in1023.0 mb 0.00 in0.0 mm 0.00 in0.0 mm 0.00 in0.0 mm
07:11 PM 63.0°F17.2°C 36.9°F2.7°C 38% 0.1 mph NNE0.2 kmh NNE 1.8 mph2.9 kmh 30.21 in1023.0 mb 0.00 in0.0 mm 0.00 in0.0 mm 0.00 in0.0 mm
07:12 PM 63.0°F17.2°C 36.9°F2.7°C 38% Calm Calm -- 30.21 in1023.0 mb 0.00 in0.0 mm 0.00 in0.0 mm 0.00 in0.0 mm
07:13 PM 62.8°F17.1°C 36.8°F2.7°C 38% Calm Calm -- 30.21 in1023.0 mb 0.00 in0.0 mm 0.00 in0.0 mm 0.00 in0.0 mm
07:14 PM 62.8°F17.1°C 37.4°F3.0°C 39% Calm Calm -- 30.21 in1023.0 mb 0.00 in0.0 mm 0.00 in0.0 mm 0.00 in0.0 mm
07:15 PM 62.8°F17.1°C 36.8°F2.7°C 38% Calm Calm -- 30.21 in1023.0 mb 0.00 in0.0 mm 0.00 in0.0 mm 0.00 in0.0 mm
07:16 PM 62.6°F17.0°C 37.3°F2.9°C 39% Calm Calm -- 30.21 in1023.0 mb 0.00 in0.0 mm 0.00 in0.0 mm 0.00 in0.0 mm
07:17 PM 62.6°F17.0°C 37.3°F2.9°C 39% Calm Calm -- 30.21 in1023.0 mb 0.00 in0.0 mm 0.00 in0.0 mm 0.00 in0.0 mm
07:18 PM 62.6°F17.0°C 37.3°F2.9°C 39% Calm Calm -- 30.21 in1023.0 mb 0.00 in0.0 mm 0.00 in0.0 mm 0.00 in0.0 mm
07:19 PM 62.4°F16.9°C 37.1°F2.8°C 39% Calm Calm -- 30.21 in1023.0 mb 0.00 in0.0 mm 0.00 in0.0 mm 0.00 in0.0 mm
07:20 PM 62.4°F16.9°C 37.1°F2.8°C 39% Calm Calm -- 30.21 in1023.0 mb 0.00 in0.0 mm 0.00 in0.0 mm 0.00 in0.0 mm
07:21 PM 62.4°F16.9°C 37.1°F2.8°C 39% Calm Calm -- 30.21 in1023.0 mb 0.00 in0.0 mm 0.00 in0.0 mm 0.00 in0.0 mm
07:22 PM 62.2°F16.8°C 37.0°F2.8°C 39% Calm Calm -- 30.18 in1022.0 mb 0.00 in0.0 mm 0.00 in0.0 mm 0.00 in0.0 mm
07:23 PM 62.2°F16.8°C 37.0°F2.8°C 39% Calm Calm -- 30.18 in1022.0 mb 0.00 in0.0 mm 0.00 in0.0 mm 0.00 in0.0 mm
07:24 PM 62.2°F16.8°C 37.0°F2.8°C 39% Calm Calm -- 30.18 in1022.0 mb 0.00 in0.0 mm 0.00 in0.0 mm 0.00 in0.0 mm
07:25 PM 62.2°F16.8°C 37.0°F2.8°C 39% Calm Calm -- 30.18 in1022.0 mb 0.00 in0.0 mm 0.00 in0.0 mm 0.00 in0.0 mm
07:26 PM 62.1°F16.7°C 37.4°F3.0°C 40% Calm Calm -- 30.18 in1022.0 mb 0.00 in0.0 mm 0.00 in0.0 mm 0.00 in0.0 mm
07:27 PM 61.9°F16.6°C 37.9°F3.3°C 41% Calm Calm -- 30.18 in1022.0 mb 0.00 in0.0 mm 0.00 in0.0 mm 0.00 in0.0 mm
07:28 PM 61.9°F16.6°C 37.9°F3.3°C 41% Calm Calm -- 30.18 in1022.0 mb 0.00 in0.0 mm 0.00 in0.0 mm 0.00 in0.0 mm
07:29 PM 61.7°F16.5°C 37.7°F3.2°C 41% Calm Calm -- 30.18 in1022.0 mb 0.00 in0.0 mm 0.00 in0.0 mm 0.00 in0.0 mm
07:30 PM 61.7°F16.5°C 38.4°F3.6°C 42% Calm Calm -- 30.18 in1022.0 mb 0.00 in0.0 mm 0.00 in0.0 mm 0.00 in0.0 mm
07:31 PM 61.5°F16.4°C 38.2°F3.4°C 42% Calm Calm -- 30.18 in1022.0 mb 0.00 in0.0 mm 0.00 in0.0 mm 0.00 in0.0 mm
07:32 PM 61.5°F16.4°C 38.2°F3.4°C 42% Calm Calm -- 30.18 in1022.0 mb 0.00 in0.0 mm 0.00 in0.0 mm 0.00 in0.0 mm
07:33 PM 61.3°F16.3°C 38.0°F3.3°C 42% Calm Calm -- 30.18 in1022.0 mb 0.00 in0.0 mm 0.00 in0.0 mm 0.00 in0.0 mm
07:34 PM 61.3°F16.3°C 38.6°F3.7°C 43% Calm Calm -- 30.18 in1022.0 mb 0.00 in0.0 mm 0.00 in0.0 mm 0.00 in0.0 mm
07:35 PM 61.2°F16.2°C 38.5°F3.6°C 43% Calm Calm -- 30.18 in1022.0 mb 0.00 in0.0 mm 0.00 in0.0 mm 0.00 in0.0 mm
07:36 PM 61.2°F16.2°C 38.5°F3.6°C 43% Calm Calm -- 30.18 in1022.0 mb 0.00 in0.0 mm 0.00 in0.0 mm 0.00 in0.0 mm
07:37 PM 61.2°F16.2°C 38.5°F3.6°C 43% Calm Calm -- 30.18 in1022.0 mb 0.00 in0.0 mm 0.00 in0.0 mm 0.00 in0.0 mm
07:38 PM 61.0°F16.1°C 38.3°F3.5°C 43% Calm Calm -- 30.18 in1022.0 mb 0.00 in0.0 mm 0.00 in0.0 mm 0.00 in0.0 mm
07:39 PM 60.8°F16.0°C 38.7°F3.7°C 44% Calm Calm -- 30.18 in1022.0 mb 0.00 in0.0 mm 0.00 in0.0 mm 0.00 in0.0 mm
07:40 PM 60.8°F16.0°C 38.7°F3.7°C 44% Calm Calm -- 30.18 in1022.0 mb 0.00 in0.0 mm 0.00 in0.0 mm 0.00 in0.0 mm
07:41 PM 60.6°F15.9°C 38.6°F3.7°C 44% Calm Calm -- 30.18 in1022.0 mb 0.00 in0.0 mm 0.00 in0.0 mm 0.00 in0.0 mm
07:42 PM 60.6°F15.9°C 38.6°F3.7°C 44% Calm Calm -- 30.18 in1022.0 mb 0.00 in0.0 mm 0.00 in0.0 mm 0.00 in0.0 mm
07:43 PM 60.4°F15.8°C 38.4°F3.6°C 44% Calm Calm -- 30.18 in1022.0 mb 0.00 in0.0 mm 0.00 in0.0 mm 0.00 in0.0 mm
07:44 PM 60.3°F15.7°C 38.2°F3.4°C 44% Calm Calm -- 30.18 in1022.0 mb 0.00 in0.0 mm 0.00 in0.0 mm 0.00 in0.0 mm
07:45 PM 60.3°F15.7°C 38.2°F3.4°C 44% Calm Calm -- 30.18 in1022.0 mb 0.00 in0.0 mm 0.00 in0.0 mm 0.00 in0.0 mm
07:46 PM 60.1°F15.6°C 38.1°F3.4°C 44% Calm Calm -- 30.18 in1022.0 mb 0.00 in0.0 mm 0.00 in0.0 mm 0.00 in0.0 mm
07:47 PM 59.9°F15.5°C 37.9°F3.3°C 44% Calm Calm -- 30.18 in1022.0 mb 0.00 in0.0 mm 0.00 in0.0 mm 0.00 in0.0 mm
07:48 PM 59.9°F15.5°C 37.9°F3.3°C 44% Calm Calm -- 30.18 in1022.0 mb 0.00 in0.0 mm 0.00 in0.0 mm 0.00 in0.0 mm
07:49 PM 59.7°F15.4°C 37.8°F3.2°C 44% Calm Calm -- 30.18 in1022.0 mb 0.00 in0.0 mm 0.00 in0.0 mm 0.00 in0.0 mm
07:50 PM 59.7°F15.4°C 37.8°F3.2°C 44% Calm Calm -- 30.18 in1022.0 mb 0.00 in0.0 mm 0.00 in0.0 mm 0.00 in0.0 mm
07:51 PM 59.5°F15.3°C 37.6°F3.1°C 44% Calm Calm -- 30.18 in1022.0 mb 0.00 in0.0 mm 0.00 in0.0 mm 0.00 in0.0 mm
07:52 PM 59.5°F15.3°C 37.6°F3.1°C 44% Calm Calm -- 30.18 in1022.0 mb 0.00 in0.0 mm 0.00 in0.0 mm 0.00 in0.0 mm
07:53 PM 59.4°F15.2°C 37.4°F3.0°C 44% Calm Calm -- 30.18 in1022.0 mb 0.00 in0.0 mm 0.00 in0.0 mm 0.00 in0.0 mm
07:54 PM 59.4°F15.2°C 37.4°F3.0°C 44% Calm Calm -- 30.18 in1022.0 mb 0.00 in0.0 mm 0.00 in0.0 mm 0.00 in0.0 mm
07:55 PM 59.2°F15.1°C 37.3°F2.9°C 44% Calm Calm -- 30.18 in1022.0 mb 0.00 in0.0 mm 0.00 in0.0 mm 0.00 in0.0 mm
07:56 PM 59.2°F15.1°C 37.3°F2.9°C 44% Calm Calm -- 30.18 in1022.0 mb 0.00 in0.0 mm 0.00 in0.0 mm 0.00 in0.0 mm
07:57 PM 59.0°F15.0°C 37.1°F2.8°C 44% Calm Calm -- 30.18 in1022.0 mb 0.00 in0.0 mm 0.00 in0.0 mm 0.00 in0.0 mm
07:58 PM 59.0°F15.0°C 37.1°F2.8°C 44% Calm Calm -- 30.18 in1022.0 mb 0.00 in0.0 mm 0.00 in0.0 mm 0.00 in0.0 mm
07:59 PM 59.0°F15.0°C 37.1°F2.8°C 44% Calm Calm -- 30.18 in1022.0 mb 0.00 in0.0 mm 0.00 in0.0 mm 0.00 in0.0 mm
08:00 PM 58.8°F14.9°C 37.5°F3.1°C 45% Calm Calm -- 30.18 in1022.0 mb 0.00 in0.0 mm 0.00 in0.0 mm 0.00 in0.0 mm
08:01 PM 58.8°F14.9°C 37.5°F3.1°C 45% Calm Calm -- 30.18 in1022.0 mb 0.00 in0.0 mm 0.00 in0.0 mm 0.00 in0.0 mm
08:02 PM 58.6°F14.8°C 37.3°F2.9°C 45% Calm Calm -- 30.18 in1022.0 mb 0.00 in0.0 mm 0.00 in0.0 mm 0.00 in0.0 mm
08:03 PM 58.6°F14.8°C 37.3°F2.9°C 45% Calm Calm -- 30.18 in1022.0 mb 0.00 in0.0 mm 0.00 in0.0 mm 0.00 in0.0 mm
08:04 PM 58.5°F14.7°C 37.2°F2.9°C 45% Calm Calm -- 30.18 in1022.0 mb 0.00 in0.0 mm 0.00 in0.0 mm 0.00 in0.0 mm
08:05 PM 58.5°F14.7°C 37.2°F2.9°C 45% Calm Calm -- 30.18 in1022.0 mb 0.00 in0.0 mm 0.00 in0.0 mm 0.00 in0.0 mm
08:06 PM 58.5°F14.7°C 37.2°F2.9°C 45% Calm Calm -- 30.18 in1022.0 mb 0.00 in0.0 mm 0.00 in0.0 mm 0.00 in0.0 mm
08:07 PM 58.3°F14.6°C 37.0°F2.8°C 45% Calm Calm -- 30.18 in1022.0 mb 0.00 in0.0 mm 0.00 in0.0 mm 0.00 in0.0 mm
08:08 PM 58.3°F14.6°C 37.0°F2.8°C 45% Calm Calm -- 30.18 in1022.0 mb 0.00 in0.0 mm 0.00 in0.0 mm 0.00 in0.0 mm
08:09 PM 58.1°F14.5°C 36.9°F2.7°C 45% Calm Calm -- 30.18 in1022.0 mb 0.00 in0.0 mm 0.00 in0.0 mm 0.00 in0.0 mm
08:10 PM 58.1°F14.5°C 36.9°F2.7°C 45% Calm Calm -- 30.18 in1022.0 mb 0.00 in0.0 mm 0.00 in0.0 mm 0.00 in0.0 mm
08:11 PM 58.1°F14.5°C 36.9°F2.7°C 45% Calm Calm -- 30.18 in1022.0 mb 0.00 in0.0 mm 0.00 in0.0 mm 0.00 in0.0 mm
08:12 PM 57.9°F14.4°C 36.7°F2.6°C 45% Calm Calm -- 30.18 in1022.0 mb 0.00 in0.0 mm 0.00 in0.0 mm 0.00 in0.0 mm
08:13 PM 57.9°F14.4°C 36.7°F2.6°C 45% Calm Calm -- 30.18 in1022.0 mb 0.00 in0.0 mm 0.00 in0.0 mm 0.00 in0.0 mm
08:14 PM 57.9°F14.4°C 36.7°F2.6°C 45% Calm Calm -- 30.18 in1022.0 mb 0.00 in0.0 mm 0.00 in0.0 mm 0.00 in0.0 mm
08:15 PM 57.9°F14.4°C 36.7°F2.6°C 45% Calm Calm -- 30.18 in1022.0 mb 0.00 in0.0 mm 0.00 in0.0 mm 0.00 in0.0 mm
08:16 PM 57.7°F14.3°C 36.5°F2.5°C 45% Calm Calm -- 30.18 in1022.0 mb 0.00 in0.0 mm 0.00 in0.0 mm 0.00 in0.0 mm
08:17 PM 57.7°F14.3°C 36.5°F2.5°C 45% Calm Calm -- 30.18 in1022.0 mb 0.00 in0.0 mm 0.00 in0.0 mm 0.00 in0.0 mm
08:18 PM 57.6°F14.2°C 36.4°F2.4°C 45% Calm Calm -- 30.18 in1022.0 mb 0.00 in0.0 mm 0.00 in0.0 mm 0.00 in0.0 mm
08:19 PM 57.6°F14.2°C 36.4°F2.4°C 45% Calm Calm -- 30.18 in1022.0 mb 0.00 in0.0 mm 0.00 in0.0 mm 0.00 in0.0 mm
08:20 PM 57.6°F14.2°C 36.4°F2.4°C 45% Calm Calm -- 30.18 in1022.0 mb 0.00 in0.0 mm 0.00 in0.0 mm 0.00 in0.0 mm
08:21 PM 57.6°F14.2°C 36.9°F2.7°C 46% Calm Calm -- 30.18 in1022.0 mb 0.00 in0.0 mm 0.00 in0.0 mm 0.00 in0.0 mm
08:22 PM 57.4°F14.1°C 36.2°F2.3°C 45% Calm Calm -- 30.18 in1022.0 mb 0.00 in0.0 mm 0.00 in0.0 mm 0.00 in0.0 mm
08:23 PM 57.4°F14.1°C 36.2°F2.3°C 45% Calm Calm -- 30.18 in1022.0 mb 0.00 in0.0 mm 0.00 in0.0 mm 0.00 in0.0 mm
08:24 PM 57.4°F14.1°C 36.2°F2.3°C 45% Calm Calm -- 30.18 in1022.0 mb 0.00 in0.0 mm 0.00 in0.0 mm 0.00 in0.0 mm
08:30 PM 56.7°F13.7°C 36.6°F2.6°C 47% 0.2 mph WNW0.3 kmh WNW 3.6 mph5.8 kmh 30.18 in1022.0 mb 0.00 in0.0 mm 0.00 in0.0 mm 0.00 in0.0 mm
08:40 PM 56.3°F13.5°C 37.4°F3.0°C 49% Calm Calm -- 30.18 in1022.0 mb 0.00 in0.0 mm 0.00 in0.0 mm 0.00 in0.0 mm
08:50 PM 56.1°F13.4°C 37.7°F3.2°C 50% 0.1 mph SSW0.2 kmh SSW 3.2 mph5.1 kmh 30.18 in1022.0 mb 0.00 in0.0 mm 0.00 in0.0 mm 0.00 in0.0 mm
09:00 PM 55.8°F13.2°C 37.9°F3.3°C 51% Calm Calm -- 30.18 in1022.0 mb 0.00 in0.0 mm 0.00 in0.0 mm 0.00 in0.0 mm
09:10 PM 55.4°F13.0°C 38.1°F3.4°C 52% Calm Calm 1.8 mph2.9 kmh 30.18 in1022.0 mb 0.00 in0.0 mm 0.00 in0.0 mm 0.00 in0.0 mm
09:20 PM 55.2°F12.9°C 38.9°F3.8°C 54% 0.1 mph W0.2 kmh W 1.4 mph2.3 kmh 30.15 in1021.0 mb 0.00 in0.0 mm 0.00 in0.0 mm 0.00 in0.0 mm
09:30 PM 54.9°F12.7°C 39.0°F3.9°C 55% 0.1 mph S0.2 kmh S 2.1 mph3.4 kmh 30.18 in1022.0 mb 0.00 in0.0 mm 0.00 in0.0 mm 0.00 in0.0 mm
09:40 PM 54.7°F12.6°C 39.3°F4.1°C 56% Calm Calm -- 30.18 in1022.0 mb 0.00 in0.0 mm 0.00 in0.0 mm 0.00 in0.0 mm
09:50 PM 54.3°F12.4°C 39.4°F4.1°C 57% Calm Calm -- 30.15 in1021.0 mb 0.00 in0.0 mm 0.00 in0.0 mm 0.00 in0.0 mm
10:00 PM 53.6°F12.0°C 39.6°F4.2°C 59% Calm Calm -- 30.18 in1022.0 mb 0.00 in0.0 mm 0.00 in0.0 mm 0.00 in0.0 mm
10:10 PM 52.7°F11.5°C 39.6°F4.2°C 61% Calm Calm -- 30.18 in1022.0 mb 0.00 in0.0 mm 0.00 in0.0 mm 0.00 in0.0 mm
10:20 PM 52.2°F11.2°C 39.1°F3.9°C 61% Calm Calm -- 30.21 in1023.0 mb 0.00 in0.0 mm 0.00 in0.0 mm 0.00 in0.0 mm
10:30 PM 51.8°F11.0°C 39.2°F4.0°C 62% 0.4 mph SE0.6 kmh SE 4.7 mph7.6 kmh 30.18 in1022.0 mb 0.00 in0.0 mm 0.00 in0.0 mm 0.00 in0.0 mm
10:40 PM 51.4°F10.8°C 38.8°F3.8°C 62% 0.3 mph SE0.5 kmh SE 5.0 mph8.0 kmh 30.18 in1022.0 mb 0.00 in0.0 mm 0.00 in0.0 mm 0.00 in0.0 mm
10:50 PM 51.1°F10.6°C 38.9°F3.8°C 63% Calm Calm -- 30.18 in1022.0 mb 0.00 in0.0 mm 0.00 in0.0 mm 0.00 in0.0 mm
11:00 PM 50.5°F10.3°C 38.4°F3.6°C 63% Calm Calm -- 30.21 in1023.0 mb 0.00 in0.0 mm 0.00 in0.0 mm 0.00 in0.0 mm
11:10 PM 50.2°F10.1°C 38.5°F3.6°C 64% Calm Calm -- 30.21 in1023.0 mb 0.00 in0.0 mm 0.00 in0.0 mm 0.00 in0.0 mm
11:20 PM 49.8°F9.9°C 38.5°F3.6°C 65% 0.2 mph SE0.3 kmh SE 4.7 mph7.6 kmh 30.18 in1022.0 mb 0.00 in0.0 mm 0.00 in0.0 mm 0.00 in0.0 mm
11:30 PM 49.6°F9.8°C 38.3°F3.5°C 65% 1.3 mph SE2.1 kmh SE 6.4 mph10.3 kmh 30.18 in1022.0 mb 0.00 in0.0 mm 0.00 in0.0 mm 0.00 in0.0 mm
11:40 PM 49.6°F9.8°C 38.7°F3.7°C 66% 0.4 mph SE0.6 kmh SE 5.0 mph8.0 kmh 30.18 in1022.0 mb 0.00 in0.0 mm 0.00 in0.0 mm 0.00 in0.0 mm
11:50 PM 49.8°F9.9°C 38.9°F3.8°C 66% 3.5 mph E5.6 kmh E 9.7 mph15.6 kmh 30.18 in1022.0 mb 0.00 in0.0 mm 0.00 in0.0 mm 0.00 in0.0 mm